Data for 08/08/2009

Time Sea-Level Adjusted Pressure Absolute Pressure Temperature Relative Humidity Dew Point Precipitation   
(mb) (inHg) (mb) (inHg) (C) (F) (%) (C) (F) (mm) (in)
00:01 1020 30.12 850 25.1 11 51.7 74 6.5 43.7 11.36 0.447
00:02 1020 30.12 850 25.1 11 51.8 73 6.3 43.4 11.37 0.448
00:03 1020 30.12 850 25.1 11 51.9 73 6.4 43.5 11.38 0.448
00:04 1020 30.12 850 25.1 11.1 51.9 73 6.4 43.6 11.44 0.45
00:05 1020 30.12 850 25.1 11 51.8 74 6.6 44 11.4 0.449
00:06 1020 30.12 850 25.1 11 51.7 74 6.6 43.9 11.38 0.448
00:07 1020 30.12 850 25.1 11 51.7 74 6.5 43.7 11.35 0.447
00:08 1021 30.15 850 25.1 11 51.8 74 6.5 43.7 11.38 0.448
00:09 1020 30.12 850 25.1 11 51.8 74 6.5 43.7 11.37 0.448
00:10 1020 30.12 850 25.1 11 51.8 74 6.6 43.8 11.39 0.448
00:11 1020 30.12 850 25.1 11 51.8 72 6.3 43.3 11.4 0.449
00:12 1021 30.15 850 25.1 11.1 51.9 72 6.2 43.2 11.44 0.45
00:13 1020 30.12 850 25.1 11 51.9 72 6.3 43.3 11.42 0.45
00:14 1020 30.12 850 25.1 11.1 51.9 71 6.1 43 11.42 0.45
00:15 1020 30.12 850 25.1 11.1 52 72 6.3 43.3 11.48 0.452
00:16 1020 30.12 850 25.1 11.1 52 71 6.1 43 11.47 0.452
00:17 1021 30.15 850 25.1 11.2 52.1 72 6.3 43.3 11.49 0.452
00:18 1020 30.12 850 25.1 11.2 52.1 71 6 42.9 11.54 0.454
00:19 1020 30.12 850 25.1 11.2 52.2 71 6.1 43 11.58 0.456
00:20 1020 30.12 850 25.1 11.2 52.2 71 6.1 43 11.57 0.456
00:21 1020 30.12 850 25.1 11.2 52.2 71 6.2 43.1 11.58 0.456
00:22 1020 30.12 850 25.1 11.3 52.3 71 6.2 43.1 11.63 0.458
00:23 1020 30.12 850 25.1 11.3 52.3 71 6.2 43.2 11.65 0.459
00:24 1020 30.12 850 25.1 11.3 52.3 71 6.3 43.3 11.62 0.457
00:25 1020 30.12 850 25.1 11.2 52.2 71 6.2 43.2 11.61 0.457
00:26 1020 30.12 850 25.1 11.2 52.2 70 6 42.7 11.57 0.456
00:27 1020 30.12 850 25.1 11.2 52.2 71 6.1 43 11.59 0.456
00:28 1020 30.12 850 25.1 11.2 52.2 70 6 42.9 11.57 0.456
00:29 1020 30.12 850 25.1 11.2 52.1 71 6 42.9 11.54 0.454
00:30 1020 30.12 850 25.1 11.2 52.1 72 6.3 43.3 11.54 0.454
00:31 1020 30.12 850 25.1 11.2 52.1 72 6.3 43.3 11.52 0.454
00:32 1020 30.12 850 25.1 11.1 52 71 6.1 42.9 11.48 0.452
00:33 1021 30.15 850 25.1 11.1 52 71 6.2 43.1 11.53 0.454
00:34 1021 30.15 850 25.1 11.1 52 72 6.2 43.1 11.45 0.451
00:35 1020 30.12 850 25.1 11.1 51.9 72 6.2 43.2 11.46 0.451
00:36 1020 30.12 850 25.1 11.1 51.9 72 6.2 43.1 11.49 0.452
00:37 1020 30.12 850 25.1 11 51.9 72 6.2 43.1 11.42 0.45
00:38 1020 30.12 850 25.1 11.1 51.9 71 6.1 43 11.41 0.449
00:39 1020 30.12 850 25.1 11 51.9 72 6.2 43.2 11.45 0.451
00:40 1020 30.12 850 25.1 11 51.8 72 6.2 43.1 11.4 0.449
00:41 1020 30.12 850 25.1 11 51.8 71 6.1 42.9 11.41 0.449
00:42 1020 30.12 850 25.1 11 51.8 72 6.2 43.1 11.38 0.448
00:43 1021 30.15 850 25.1 11 51.9 72 6.3 43.3 11.38 0.448
00:44 1021 30.15 850 25.1 11.1 51.9 71 6.1 42.9 11.42 0.45
00:45 1020 30.12 850 25.1 11.1 51.9 71 6.1 43 11.41 0.449
00:46 1021 30.15 850 25.1 11.1 51.9 72 6.2 43.1 11.44 0.45
00:47 1021 30.15 850 25.1 11.1 51.9 71 6 42.8 11.44 0.45
00:48 1020 30.12 850 25.1 11.1 51.9 72 6.2 43.2 11.47 0.452
00:49 1021 30.15 850 25.1 11.1 51.9 73 6.4 43.4 11.42 0.45
00:50 1021 30.15 850 25.1 11 51.9 72 6.2 43.2 11.39 0.448
00:51 1021 30.15 850 25.1 11.1 51.9 73 6.3 43.4 11.39 0.448
00:52 1021 30.15 850 25.1 11 51.8 73 6.3 43.3 11.37 0.448
00:53 1021 30.15 850 25.1 11 51.7 72 6.2 43.2 11.37 0.448
00:54 1021 30.15 850 25.1 11 51.8 72 6.2 43.2 11.35 0.447
00:55 1021 30.15 850 25.1 10.9 51.7 73 6.4 43.5 11.33 0.446
00:56 1021 30.15 850 25.1 10.9 51.7 73 6.3 43.4 11.3 0.445
00:57 1021 30.15 850 25.1 10.9 51.6 73 6.2 43.2 11.31 0.445
00:58 1021 30.15 850 25.1 10.9 51.6 74 6.4 43.6 11.28 0.444
00:59 1020 30.12 850 25.1 10.9 51.5 73 6.3 43.3 11.25 0.443
01:00 1020 30.12 850 25.1 10.8 51.5 73 6.3 43.3 11.26 0.443
01:01 1020 30.12 850 25.1 10.9 51.5 74 6.4 43.4 11.22 0.442
01:02 1020 30.12 850 25.1 10.8 51.5 73 6.3 43.3 11.21 0.441
01:03 1020 30.12 850 25.1 10.8 51.5 73 6.2 43.2 11.19 0.441
01:04 1020 30.12 850 25.1 10.9 51.5 73 6.3 43.3 11.26 0.443
01:05 1020 30.12 850 25.1 10.8 51.5 73 6.2 43.2 11.24 0.443
01:06 1020 30.12 849 25.07 10.9 51.5 73 6.2 43.2 11.24 0.443
01:07 1020 30.12 849 25.07 10.8 51.5 74 6.4 43.5 11.22 0.442
01:08 1020 30.12 849 25.07 10.8 51.4 73 6.2 43.1 11.17 0.44
01:09 1020 30.12 849 25.07 10.8 51.4 73 6.1 43 11.17 0.44
01:10 1020 30.12 849 25.07 10.8 51.5 73 6.2 43.1 11.19 0.441
01:11 1020 30.12 849 25.07 10.8 51.5 73 6.1 43 11.2 0.441
01:12 1020 30.12 849 25.07 10.8 51.5 73 6.1 43 11.21 0.441
01:13 1020 30.12 849 25.07 10.8 51.5 72 6.1 43 11.23 0.442
01:14 1020 30.12 850 25.1 10.9 51.6 73 6.3 43.3 11.29 0.444
01:15 1020 30.12 850 25.1 10.9 51.5 73 6.2 43.2 11.24 0.443
01:16 1020 30.12 850 25.1 10.9 51.5 73 6.3 43.4 11.2 0.441
01:17 1020 30.12 850 25.1 10.8 51.5 74 6.3 43.4 11.18 0.44
01:18 1020 30.12 850 25.1 10.8 51.4 74 6.3 43.4 11.14 0.439
01:19 1020 30.12 850 25.1 10.8 51.4 74 6.4 43.5 11.17 0.44
01:20 1020 30.12 850 25.1 10.8 51.4 74 6.4 43.4 11.15 0.439
01:21 1020 30.12 850 25.1 10.8 51.4 74 6.4 43.5 11.14 0.439
01:22 1020 30.12 850 25.1 10.8 51.4 75 6.5 43.7 11.14 0.439
01:23 1020 30.12 850 25.1 10.7 51.3 74 6.3 43.4 11.17 0.44
01:24 1020 30.12 850 25.1 10.7 51.3 75 6.4 43.5 11.15 0.439
01:25 1020 30.12 850 25.1 10.7 51.3 75 6.5 43.8 11.15 0.439
01:26 1020 30.12 850 25.1 10.7 51.2 74 6.3 43.4 11.12 0.438
01:27 1020 30.12 850 25.1 10.7 51.3 74 6.3 43.3 11.1 0.437
01:28 1020 30.12 850 25.1 10.8 51.4 73 6.2 43.2 11.11 0.437
01:29 1020 30.12 850 25.1 10.8 51.4 73 6.2 43.2 11.13 0.438
01:30 1020 30.12 850 25.1 10.8 51.4 73 6.2 43.1 11.12 0.438
01:31 1020 30.12 850 25.1 10.8 51.4 71 5.8 42.4 11.13 0.438
01:32 1021 30.15 850 25.1 10.8 51.4 72 5.9 42.6 11.18 0.44
01:33 1021 30.15 850 25.1 10.8 51.5 71 5.9 42.6 11.19 0.441
01:34 1021 30.15 850 25.1 10.9 51.5 71 5.8 42.5 11.2 0.441
01:35 1021 30.15 850 25.1 10.8 51.5 71 5.8 42.4 11.22 0.442
01:36 1021 30.15 850 25.1 10.8 51.5 72 6 42.8 11.2 0.441
01:37 1021 30.15 850 25.1 10.8 51.4 73 6.2 43.2 11.14 0.439
01:38 1021 30.15 850 25.1 10.6 51.2 74 6.2 43.2 11.03 0.434
01:39 1021 30.15 850 25.1 10.5 51 74 6.1 42.9 10.95 0.431
01:40 1021 30.15 850 25.1 10.5 50.9 75 6.2 43.2 10.92 0.43
01:41 1021 30.15 850 25.1 10.4 50.8 75 6.2 43.2 10.85 0.427
01:42 1021 30.15 850 25.1 10.4 50.6 75 6.2 43.1 10.75 0.423
01:43 1020 30.12 850 25.1 10.3 50.5 75 6.1 43 10.7 0.421
01:44 1020 30.12 850 25.1 10.3 50.5 76 6.2 43.1 10.68 0.42
01:45 1020 30.12 850 25.1 10.2 50.4 76 6.2 43.1 10.57 0.416
01:46 1020 30.12 850 25.1 10.2 50.3 76 6.1 43 10.51 0.414
01:47 1020 30.12 850 25.1 10.1 50.1 77 6.1 43.1 10.49 0.413
01:48 1020 30.12 850 25.1 10 50 77 6.1 43 10.41 0.41
01:49 1020 30.12 850 25.1 10 49.9 77 6.1 43 10.4 0.409
01:50 1020 30.12 850 25.1 9.9 49.8 77 6.1 42.9 10.29 0.405
01:51 1020 30.12 850 25.1 9.8 49.6 78 6.1 43 10.21 0.402
01:52 1020 30.12 850 25.1 9.7 49.5 78 6.1 43 10.13 0.399
01:53 1020 30.12 850 25.1 9.7 49.4 78 6 42.8 10.04 0.395
01:54 1020 30.12 850 25.1 9.6 49.3 78 6 42.7 10 0.394
01:55 1020 30.12 850 25.1 9.6 49.2 78 6 42.8 10 0.394
01:56 1020 30.12 850 25.1 9.5 49.1 79 6 42.8 9.9 0.39
01:57 1020 30.12 850 25.1 9.5 49 79 5.9 42.7 9.87 0.389
01:58 1020 30.12 850 25.1 9.5 49 79 6.1 42.9 9.79 0.385
01:59 1020 30.12 850 25.1 9.3 48.7 80 6 42.8 9.74 0.383
02:00 1020 30.12 850 25.1 9.2 48.6 80 6 42.9 9.63 0.379
02:01 1020 30.12 850 25.1 9.1 48.4 81 6.1 42.9 9.51 0.374
02:02 1020 30.12 850 25.1 9 48.2 82 6 42.8 9.41 0.37
02:03 1020 30.12 850 25.1 8.9 48 82 6 42.8 9.33 0.367
02:04 1020 30.12 850 25.1 8.9 47.9 82 6 42.8 9.28 0.365
02:05 1020 30.12 850 25.1 8.8 47.8 82 5.9 42.7 9.25 0.364
02:06 1020 30.12 850 25.1 8.8 47.8 82 5.8 42.5 9.22 0.363
02:07 1020 30.12 850 25.1 8.8 47.8 81 5.8 42.4 9.15 0.36
02:08 1020 30.12 850 25.1 8.9 48 81 5.8 42.4 9.19 0.362
02:09 1020 30.12 850 25.1 9 48.2 80 5.8 42.5 9.29 0.366
02:10 1020 30.12 850 25.1 9 48.2 80 5.8 42.5 9.34 0.368
02:11 1020 30.12 850 25.1 8.9 48 81 5.9 42.6 9.29 0.366
02:12 1020 30.12 850 25.1 8.8 47.8 82 5.9 42.6 9.16 0.361
02:13 1020 30.12 850 25.1 8.6 47.5 83 5.8 42.5 9.03 0.356
02:14 1020 30.12 850 25.1 8.6 47.4 83 5.9 42.6 8.94 0.352
02:15 1020 30.12 850 25.1 8.6 47.4 83 5.9 42.7 8.97 0.353
02:16 1020 30.12 850 25.1 8.7 47.6 83 6 42.9 9 0.354
02:17 1020 30.12 850 25.1 8.7 47.7 83 6.1 42.9 9.06 0.357
02:18 1020 30.12 850 25.1 8.8 47.8 83 6.1 42.9 9.1 0.358
02:19 1020 30.12 850 25.1 8.8 47.8 83 6.1 42.9 9.13 0.359
02:20 1020 30.12 850 25.1 8.8 47.9 83 6.1 43 9.16 0.361
02:21 1020 30.12 850 25.1 8.9 48 83 6.1 43.1 9.23 0.363
02:22 1020 30.12 850 25.1 8.9 48.1 83 6.1 43.1 9.26 0.365
02:23 1020 30.12 850 25.1 8.9 48.1 82 6.1 43 9.25 0.364
02:24 1020 30.12 850 25.1 8.9 48.1 82 6.1 43 9.26 0.365
02:25 1020 30.12 850 25.1 8.9 48 83 6.1 43 9.23 0.363
02:26 1021 30.15 850 25.1 8.9 47.9 83 6.1 43 9.24 0.364
02:27 1021 30.15 850 25.1 8.8 47.9 83 6.1 43 9.24 0.364
02:28 1021 30.15 850 25.1 8.8 47.8 84 6.2 43.1 9.17 0.361
02:29 1021 30.15 850 25.1 8.6 47.5 85 6.2 43.2 9.06 0.357
02:30 1021 30.15 850 25.1 8.5 47.3 86 6.3 43.3 8.9 0.35
02:31 1021 30.15 850 25.1 8.4 47 87 6.3 43.3 8.81 0.347
02:32 1021 30.15 850 25.1 8.3 46.9 87 6.3 43.3 8.74 0.344
02:33 1021 30.15 850 25.1 8.2 46.7 87 6.2 43.1 8.61 0.339
02:34 1021 30.15 850 25.1 8.1 46.6 88 6.3 43.3 8.54 0.336
02:35 1021 30.15 850 25.1 8.1 46.5 88 6.2 43.2 8.45 0.333
02:36 1021 30.15 850 25.1 7.9 46.3 89 6.2 43.1 8.39 0.33
02:37 1021 30.15 850 25.1 7.9 46.3 89 6.2 43.1 8.37 0.33
02:38 1021 30.15 850 25.1 8 46.3 89 6.2 43.2 8.39 0.33
02:39 1021 30.15 850 25.1 7.9 46.3 88 6.1 43 8.36 0.329
02:40 1021 30.15 850 25.1 7.9 46.2 88 6.1 43 8.34 0.328
02:41 1021 30.15 850 25.1 7.9 46.1 88 6.1 42.9 8.25 0.325
02:42 1020 30.12 850 25.1 7.8 46 89 6 42.9 8.17 0.322
02:43 1021 30.15 850 25.1 7.7 45.9 89 6 42.9 8.12 0.32
02:44 1021 30.15 850 25.1 7.7 45.8 90 6.1 43 8.13 0.32
02:45 1021 30.15 850 25.1 7.7 45.8 90 6.2 43.2 8.11 0.319
02:46 1021 30.15 850 25.1 7.7 45.8 90 6.2 43.1 8.2 0.323
02:47 1021 30.15 850 25.1 7.8 46 90 6.2 43.2 8.21 0.323
02:48 1020 30.12 850 25.1 7.8 46 90 6.3 43.3 8.25 0.325
02:49 1020 30.12 850 25.1 7.8 46.1 90 6.3 43.3 8.3 0.327
02:50 1020 30.12 850 25.1 7.9 46.1 90 6.3 43.3 8.25 0.325
02:51 1020 30.12 850 25.1 7.9 46.1 90 6.4 43.5 8.32 0.328
02:52 1020 30.12 850 25.1 8 46.4 90 6.4 43.6 8.37 0.33
02:53 1021 30.15 850 25.1 8 46.4 89 6.2 43.2 8.36 0.329
02:54 1021 30.15 850 25.1 7.9 46.3 89 6.3 43.3 8.24 0.324
02:55 1020 30.12 850 25.1 7.9 46.1 89 6.2 43.2 8.17 0.322
02:56 1020 30.12 850 25.1 7.8 46 90 6.2 43.1 8.16 0.321
02:57 1020 30.12 850 25.1 7.8 46 90 6.3 43.3 8.18 0.322
02:58 1021 30.15 850 25.1 7.8 46 90 6.2 43.2 8.22 0.324
02:59 1020 30.12 850 25.1 7.8 46.1 89 6.2 43.1 8.22 0.324
03:00 1021 30.15 850 25.1 7.8 46 90 6.2 43.2 8.19 0.322
03:01 1021 30.15 850 25.1 7.7 45.9 89 6.1 42.9 8.1 0.319
03:02 1021 30.15 850 25.1 7.7 45.8 90 6.2 43.2 8.08 0.318
03:03 1021 30.15 850 25.1 7.7 45.8 91 6.3 43.3 8.07 0.318
03:04 1021 30.15 850 25.1 7.8 46 92 6.6 43.9 8.16 0.321
03:05 1021 30.15 850 25.1 7.8 46 91 6.4 43.5 8.24 0.324
03:06 1021 30.15 850 25.1 7.8 46 91 6.4 43.6 8.21 0.323
03:07 1021 30.15 850 25.1 7.8 46.1 90 6.3 43.4 8.21 0.323
03:08 1021 30.15 850 25.1 7.8 46 90 6.3 43.3 8.16 0.321
03:09 1021 30.15 850 25.1 7.7 45.9 91 6.3 43.4 8.13 0.32
03:10 1021 30.15 850 25.1 7.7 45.9 91 6.3 43.4 8.17 0.322
03:11 1021 30.15 850 25.1 7.7 45.8 91 6.3 43.4 8.17 0.322
03:12 1021 30.15 850 25.1 7.8 46 91 6.4 43.5 8.22 0.324
03:13 1021 30.15 850 25.1 7.8 46.1 92 6.5 43.8 8.24 0.324
03:14 1021 30.15 850 25.1 7.9 46.2 92 6.7 44 8.32 0.328
03:15 1021 30.15 850 25.1 7.9 46.2 92 6.7 44 8.38 0.33
03:16 1021 30.15 850 25.1 8 46.3 92 6.7 44 8.39 0.33
03:17 1021 30.15 850 25.1 8 46.3 92 6.8 44.2 8.38 0.33
03:18 1021 30.15 850 25.1 8 46.4 92 6.7 44.1 8.41 0.331
03:19 1021 30.15 850 25.1 8 46.4 92 6.7 44.1 8.43 0.332
03:20 1021 30.15 850 25.1 8 46.3 92 6.7 44.1 8.39 0.33
03:21 1021 30.15 850 25.1 7.9 46.3 92 6.8 44.2 8.39 0.33
03:22 1020 30.12 850 25.1 8 46.4 93 7 44.5 8.42 0.331
03:23 1020 30.12 850 25.1 8.1 46.5 93 7 44.6 8.48 0.334
03:24 1020 30.12 850 25.1 8.1 46.6 94 7.1 44.8 8.53 0.336
03:25 1021 30.15 850 25.1 8.2 46.7 94 7.3 45.1 8.61 0.339
03:26 1021 30.15 850 25.1 8.2 46.8 93 7.2 45 8.68 0.342
03:27 1021 30.15 850 25.1 8.2 46.7 93 7.1 44.7 8.65 0.341
03:28 1021 30.15 850 25.1 8.2 46.8 93 7.2 45 8.63 0.34
03:29 1021 30.15 850 25.1 8.2 46.7 93 7.2 45 8.65 0.341
03:30 1021 30.15 850 25.1 8.2 46.7 94 7.2 45 8.63 0.34
03:31 1021 30.15 850 25.1 8.2 46.7 93 7.1 44.8 8.61 0.339
03:32 1021 30.15 850 25.1 8.1 46.5 93 7.1 44.7 8.52 0.335
03:33 1021 30.15 850 25.1 8 46.5 93 7 44.7 8.5 0.335
03:34 1021 30.15 850 25.1 8 46.4 94 7.1 44.7 8.48 0.334
03:35 1021 30.15 850 25.1 8 46.5 94 7.2 44.9 8.47 0.333
03:36 1021 30.15 850 25.1 8 46.4 94 7.1 44.8 8.52 0.335
03:37 1021 30.15 850 25.1 8 46.4 94 7.1 44.8 8.46 0.333
03:38 1021 30.15 850 25.1 7.9 46.3 94 7 44.5 8.38 0.33
03:39 1021 30.15 850 25.1 7.9 46.2 94 7 44.7 8.32 0.328
03:40 1021 30.15 850 25.1 7.9 46.1 94 7 44.6 8.32 0.328
03:41 1021 30.15 850 25.1 7.8 46 94 6.9 44.4 8.24 0.324
03:42 1021 30.15 850 25.1 7.8 46 94 6.9 44.5 8.16 0.321
03:43 1021 30.15 850 25.1 7.7 45.9 95 6.9 44.4 8.13 0.32
03:44 1021 30.15 850 25.1 7.7 45.9 94 6.9 44.4 8.11 0.319
03:45 1021 30.15 850 25.1 7.7 45.8 94 6.8 44.2 8.07 0.318
03:46 1021 30.15 850 25.1 7.6 45.7 94 6.7 44.1 7.99 0.315
03:47 1021 30.15 850 25.1 7.5 45.6 94 6.7 44.1 7.94 0.313
03:48 1021 30.15 850 25.1 7.5 45.4 94 6.6 43.9 7.9 0.311
03:49 1021 30.15 850 25.1 7.5 45.4 95 6.7 44 7.89 0.311
03:50 1021 30.15 850 25.1 7.4 45.4 95 6.7 44 7.86 0.309
03:51 1021 30.15 850 25.1 7.4 45.4 95 6.7 44.1 7.85 0.309
03:52 1021 30.15 850 25.1 7.5 45.4 95 6.7 44.1 7.84 0.309
03:53 1021 30.15 850 25.1 7.5 45.4 95 6.8 44.2 7.86 0.309
03:54 1021 30.15 850 25.1 7.4 45.3 96 6.7 44.1 7.86 0.309
03:55 1021 30.15 850 25.1 7.5 45.4 96 6.8 44.3 7.89 0.311
03:56 1021 30.15 850 25.1 7.5 45.6 96 6.9 44.5 8.01 0.315
03:57 1021 30.15 850 25.1 7.6 45.7 96 7 44.7 8.1 0.319
03:58 1021 30.15 850 25.1 7.7 45.8 96 7.1 44.8 8.15 0.321
03:59 1021 30.15 850 25.1 7.7 45.9 96 7.1 44.8 8.18 0.322
04:00 1020 30.12 850 25.1 7.8 46 96 7.1 44.8 8.2 0.323
04:01 1020 30.12 850 25.1 7.7 45.9 95 7 44.7 8.14 0.32
04:02 1020 30.12 850 25.1 7.7 45.9 96 7.1 44.7 8.12 0.32
04:03 1020 30.12 850 25.1 7.7 45.9 96 7 44.7 8.05 0.317
04:04 1020 30.12 850 25.1 7.7 45.9 96 7 44.7 8.07 0.318
04:05 1020 30.12 850 25.1 7.7 45.8 96 7 44.6 8.03 0.316
04:06 1020 30.12 850 25.1 7.6 45.6 95 6.8 44.3 7.96 0.313
04:07 1020 30.12 850 25.1 7.5 45.6 95 6.8 44.3 7.87 0.31
04:08 1020 30.12 850 25.1 7.5 45.5 95 6.8 44.2 7.88 0.31
04:09 1020 30.12 850 25.1 7.4 45.3 95 6.7 44 7.79 0.307
04:10 1020 30.12 850 25.1 7.4 45.2 95 6.6 44 7.74 0.305
04:11 1020 30.12 850 25.1 7.3 45.2 96 6.7 44 7.72 0.304
04:12 1020 30.12 850 25.1 7.4 45.3 96 6.8 44.3 7.83 0.308
04:13 1020 30.12 850 25.1 7.5 45.6 96 7 44.6 7.94 0.313
04:14 1020 30.12 850 25.1 7.6 45.6 96 7 44.7 7.99 0.315
04:15 1020 30.12 850 25.1 7.7 45.8 96 7.1 44.8 7.96 0.313
04:16 1020 30.12 850 25.1 7.7 45.8 96 7.1 44.7 8.04 0.317
04:17 1020 30.12 850 25.1 7.7 45.9 96 7.1 44.7 8.04 0.317
04:18 1020 30.12 850 25.1 7.5 45.5 95 6.7 44.1 7.86 0.309
04:19 1020 30.12 850 25.1 7.4 45.3 95 6.7 44 7.71 0.304
04:20 1020 30.12 850 25.1 7.4 45.3 95 6.7 44.1 7.71 0.304
04:21 1020 30.12 850 25.1 7.3 45.2 95 6.6 43.8 7.64 0.301
04:22 1020 30.12 850 25.1 7.2 44.9 94 6.3 43.3 7.44 0.293
04:23 1020 30.12 850 25.1 7 44.6 95 6.2 43.2 7.28 0.287
04:24 1020 30.12 850 25.1 7 44.6 95 6.2 43.2 7.29 0.287
04:25 1020 30.12 850 25.1 6.8 44.3 95 6.1 42.9 7.13 0.281
04:26 1020 30.12 850 25.1 6.7 44.1 95 5.9 42.6 6.98 0.275
04:27 1020 30.12 850 25.1 6.6 43.9 95 5.8 42.4 6.872 0.271
04:28 1020 30.12 850 25.1 6.5 43.7 95 5.7 42.2 6.759 0.266
04:29 1020 30.12 850 25.1 6.4 43.4 95 5.6 42.1 6.618 0.261
04:30 1020 30.12 850 25.1 6.2 43.2 95 5.4 41.8 6.556 0.258
04:31 1020 30.12 850 25.1 6.1 43 95 5.4 41.7 6.493 0.256
04:32 1020 30.12 850 25.1 6.1 43 95 5.4 41.8 6.465 0.255
04:33 1020 30.12 850 25.1 6.2 43.2 96 5.6 42.1 6.516 0.257
04:34 1020 30.12 850 25.1 6.2 43.2 96 5.7 42.2 6.601 0.26
04:35 1020 30.12 850 25.1 6.2 43.2 96 5.6 42.1 6.55 0.258
04:36 1020 30.12 850 25.1 6.2 43.2 96 5.7 42.3 6.55 0.258
04:37 1020 30.12 850 25.1 6.2 43.1 96 5.5 41.9 6.488 0.255
04:38 1020 30.12 850 25.1 6.1 42.9 96 5.4 41.7 6.386 0.251
04:39 1020 30.12 850 25.1 6 42.8 96 5.4 41.7 6.358 0.25
04:40 1020 30.12 850 25.1 6 42.7 96 5.3 41.5 6.245 0.246
04:41 1020 30.12 850 25.1 5.9 42.6 96 5.2 41.4 6.182 0.243
04:42 1021 30.15 850 25.1 5.8 42.5 96 5.2 41.3 6.182 0.243
04:43 1021 30.15 850 25.1 5.7 42.3 95 5 41.1 6.132 0.241
04:44 1021 30.15 850 25.1 5.6 42.2 95 5 40.9 5.99 0.236
04:45 1021 30.15 850 25.1 5.6 42.1 96 5 41 5.99 0.236
04:46 1021 30.15 850 25.1 5.6 42.1 96 5.1 41.1 6.018 0.237
04:47 1021 30.15 850 25.1 5.7 42.3 96 5.2 41.3 6.064 0.239
04:48 1021 30.15 850 25.1 5.8 42.4 97 5.3 41.5 6.132 0.241
04:49 1021 30.15 850 25.1 5.8 42.5 96 5.3 41.5 6.177 0.243
04:50 1021 30.15 850 25.1 5.8 42.5 96 5.3 41.5 6.177 0.243
04:51 1021 30.15 850 25.1 5.8 42.5 96 5.3 41.5 6.194 0.244
04:52 1021 30.15 850 25.1 5.8 42.5 96 5.2 41.4 6.205 0.244
04:53 1021 30.15 850 25.1 5.8 42.5 96 5.3 41.5 6.149 0.242
04:54 1021 30.15 850 25.1 5.9 42.6 96 5.3 41.6 6.216 0.245
04:55 1021 30.15 850 25.1 5.9 42.6 96 5.3 41.6 6.267 0.247
04:56 1021 30.15 850 25.1 5.9 42.7 96 5.4 41.7 6.307 0.248
04:57 1021 30.15 850 25.1 6 42.7 96 5.4 41.7 6.363 0.251
04:58 1021 30.15 850 25.1 6 42.8 96 5.4 41.8 6.375 0.251
04:59 1021 30.15 850 25.1 6 42.8 96 5.4 41.8 6.388 0.251
05:00 1021 30.15 850 25.1 6 42.8 96 5.5 41.8 6.359 0.25
05:01 1021 30.15 850 25.1 6 42.9 96 5.5 41.9 6.411 0.252
05:02 1021 30.15 850 25.1 6.1 42.9 96 5.5 42 6.446 0.254
05:03 1021 30.15 850 25.1 6.1 43 97 5.6 42.1 6.542 0.258
05:04 1021 30.15 850 25.1 6.2 43.2 97 5.7 42.3 6.593 0.26
05:05 1021 30.15 850 25.1 6.3 43.3 97 5.8 42.4 6.633 0.261
05:06 1021 30.15 850 25.1 6.3 43.4 97 5.8 42.5 6.661 0.262
05:07 1021 30.15 850 25.1 6.3 43.4 96 5.8 42.5 6.701 0.264
05:08 1021 30.15 850 25.1 6.4 43.5 96 5.8 42.5 6.758 0.266
05:09 1021 30.15 850 25.1 6.4 43.5 96 5.8 42.5 6.764 0.266
05:10 1021 30.15 850 25.1 6.4 43.5 96 5.9 42.6 6.781 0.267
05:11 1021 30.15 850 25.1 6.4 43.6 96 5.9 42.6 6.81 0.268
05:12 1021 30.15 850 25.1 6.5 43.7 96 5.9 42.7 6.821 0.269
05:13 1021 30.15 850 25.1 6.6 43.8 96 6 42.7 6.895 0.271
05:14 1021 30.15 850 25.1 6.6 43.9 96 6 42.7 6.884 0.271
05:15 1021 30.15 850 25.1 6.7 44 95 6 42.8 6.946 0.273
05:16 1021 30.15 850 25.1 6.7 44.1 95 6 42.8 6.98 0.275
05:17 1021 30.15 850 25.1 6.8 44.2 95 6.1 42.9 7.04 0.277
05:18 1021 30.15 850 25.1 6.8 44.3 95 6 42.8 7.14 0.281
05:19 1021 30.15 850 25.1 6.9 44.4 95 6.1 43 7.15 0.281
05:20 1021 30.15 850 25.1 6.9 44.5 94 6.1 43 7.2 0.283
05:21 1021 30.15 850 25.1 7 44.6 94 6.2 43.1 7.22 0.284
05:22 1021 30.15 850 25.1 7 44.6 94 6.1 43 7.3 0.287
05:23 1021 30.15 850 25.1 7.1 44.7 94 6.2 43.1 7.35 0.289
05:24 1021 30.15 850 25.1 7.1 44.8 94 6.2 43.2 7.4 0.291
05:25 1021 30.15 850 25.1 7.1 44.8 94 6.2 43.1 7.45 0.293
05:26 1021 30.15 850 25.1 7.2 44.9 94 6.2 43.2 7.48 0.294
05:27 1021 30.15 850 25.1 7.2 45 93 6.2 43.2 7.52 0.296
05:28 1021 30.15 850 25.1 7.3 45.1 93 6.2 43.2 7.52 0.296
05:29 1021 30.15 850 25.1 7.3 45.1 93 6.2 43.2 7.54 0.297
05:30 1021 30.15 850 25.1 7.3 45.1 93 6.2 43.1 7.51 0.296
05:31 1021 30.15 850 25.1 7.3 45.1 93 6.2 43.1 7.49 0.295
05:32 1021 30.15 850 25.1 7.3 45.1 93 6.2 43.1 7.54 0.297
05:33 1021 30.15 850 25.1 7.3 45.1 92 6.1 43 7.55 0.297
05:34 1021 30.15 850 25.1 7.3 45.1 92 6.1 43 7.54 0.297
05:35 1021 30.15 850 25.1 7.3 45.1 92 6.1 42.9 7.52 0.296
05:36 1021 30.15 850 25.1 7.2 45 92 6 42.8 7.49 0.295
05:37 1021 30.15 850 25.1 7.2 44.9 92 6 42.7 7.42 0.292
05:38 1021 30.15 850 25.1 7.1 44.8 92 6 42.8 7.39 0.291
05:39 1021 30.15 850 25.1 7.1 44.8 93 6 42.8 7.37 0.29
05:40 1021 30.15 850 25.1 7.1 44.7 93 6 42.8 7.35 0.289
05:41 1021 30.15 850 25.1 7 44.7 93 6 42.8 7.37 0.29
05:42 1021 30.15 850 25.1 7 44.7 93 6 42.9 7.33 0.289
05:43 1021 30.15 850 25.1 7 44.6 93 6 42.8 7.26 0.286
05:44 1021 30.15 850 25.1 6.9 44.4 94 5.9 42.7 7.24 0.285
05:45 1021 30.15 850 25.1 6.9 44.5 94 6.1 42.9 7.28 0.287
05:46 1021 30.15 850 25.1 6.9 44.5 94 6.1 43 7.35 0.289
05:47 1021 30.15 850 25.1 7 44.6 94 6.1 43.1 7.34 0.289
05:48 1021 30.15 850 25.1 7.1 44.7 94 6.2 43.2 7.35 0.289
05:49 1021 30.15 850 25.1 7 44.7 94 6.2 43.2 7.4 0.291
05:50 1021 30.15 850 25.1 7.1 44.8 94 6.3 43.3 7.43 0.293
05:51 1021 30.15 850 25.1 7.2 44.9 94 6.3 43.3 7.49 0.295
05:52 1021 30.15 850 25.1 7.2 44.9 94 6.3 43.4 7.52 0.296
05:53 1021 30.15 850 25.1 7.2 45 94 6.4 43.4 7.55 0.297
05:54 1021 30.15 850 25.1 7.2 45 94 6.4 43.4 7.59 0.299
05:55 1021 30.15 850 25.1 7.3 45.1 94 6.4 43.5 7.62 0.3
05:56 1021 30.15 850 25.1 7.4 45.2 94 6.4 43.6 7.65 0.301
05:57 1021 30.15 850 25.1 7.4 45.3 94 6.5 43.7 7.69 0.303
05:58 1021 30.15 850 25.1 7.4 45.3 94 6.5 43.7 7.72 0.304
05:59 1021 30.15 851 25.13 7.4 45.4 94 6.5 43.7 7.76 0.306
06:00 1021 30.15 851 25.13 7.5 45.4 94 6.6 43.8 7.76 0.306
06:01 1021 30.15 851 25.13 7.5 45.5 94 6.6 43.8 7.79 0.307
06:02 1021 30.15 851 25.13 7.5 45.5 94 6.6 43.9 7.79 0.307
06:03 1021 30.15 851 25.13 7.6 45.7 94 6.7 44 7.89 0.311
06:04 1021 30.15 851 25.13 7.6 45.7 93 6.6 43.9 7.88 0.31
06:05 1021 30.15 851 25.13 7.6 45.8 93 6.6 43.9 7.89 0.311
06:06 1021 30.15 851 25.13 7.7 45.9 93 6.6 43.9 7.94 0.313
06:07 1021 30.15 851 25.13 7.8 46 93 6.7 44 8 0.315
06:08 1021 30.15 851 25.13 7.8 46.1 93 6.7 44.1 8.02 0.316
06:09 1021 30.15 851 25.13 7.8 46.1 93 6.7 44 8.06 0.317
06:10 1021 30.15 851 25.13 7.9 46.2 93 6.8 44.2 8.09 0.319
06:11 1021 30.15 851 25.13 7.9 46.2 92 6.7 44.1 8.09 0.319
06:12 1021 30.15 851 25.13 7.9 46.2 93 6.8 44.2 8.14 0.32
06:13 1021 30.15 851 25.13 7.9 46.2 93 6.8 44.2 8.12 0.32
06:14 1021 30.15 851 25.13 7.9 46.3 93 6.8 44.3 8.17 0.322
06:15 1022 30.18 851 25.13 8 46.3 92 6.8 44.3 8.21 0.323
06:16 1022 30.18 851 25.13 8 46.4 93 6.9 44.4 8.24 0.324
06:17 1022 30.18 851 25.13 8 46.4 93 6.9 44.4 8.28 0.326
06:18 1022 30.18 851 25.13 8 46.4 93 6.9 44.4 8.3 0.327
06:19 1022 30.18 851 25.13 8 46.3 93 6.9 44.5 8.28 0.326
06:20 1022 30.18 851 25.13 8 46.3 93 7 44.5 8.3 0.327
06:21 1022 30.18 851 25.13 8 46.3 93 7 44.5 8.26 0.325
06:22 1022 30.18 851 25.13 8 46.4 93 7 44.6 8.32 0.328
06:23 1022 30.18 851 25.13 8 46.4 94 7 44.6 8.31 0.327
06:24 1022 30.18 851 25.13 8 46.4 93 7 44.6 8.29 0.326
06:25 1022 30.18 851 25.13 8 46.4 93 7 44.6 8.33 0.328
06:26 1022 30.18 851 25.13 8 46.4 93 7 44.5 8.31 0.327
06:27 1022 30.18 851 25.13 8 46.4 93 7 44.6 8.31 0.327
06:28 1022 30.18 851 25.13 8 46.5 93 7 44.6 8.32 0.328
06:29 1022 30.18 851 25.13 8 46.4 93 7 44.5 8.35 0.329
06:30 1022 30.18 851 25.13 8 46.4 93 7 44.6 8.37 0.33
06:31 1022 30.18 851 25.13 8 46.5 93 7 44.6 8.36 0.329
06:32 1022 30.18 851 25.13 8 46.5 93 7 44.6 8.35 0.329
06:33 1022 30.18 851 25.13 8.1 46.5 93 7 44.6 8.32 0.328
06:34 1022 30.18 851 25.13 8.1 46.5 93 7 44.6 8.35 0.329
06:35 1022 30.18 851 25.13 8.1 46.5 93 7 44.6 8.33 0.328
06:36 1022 30.18 851 25.13 8.1 46.5 93 7 44.5 8.33 0.328
06:37 1022 30.18 851 25.13 8 46.4 93 6.9 44.4 8.29 0.326
06:38 1022 30.18 851 25.13 8 46.4 93 6.9 44.5 8.3 0.327
06:39 1022 30.18 851 25.13 8 46.4 93 6.9 44.5 8.31 0.327
06:40 1022 30.18 851 25.13 8 46.4 93 6.9 44.4 8.26 0.325
06:41 1022 30.18 851 25.13 8 46.4 93 6.9 44.4 8.32 0.328
06:42 1022 30.18 851 25.13 8 46.4 93 6.9 44.4 8.29 0.326
06:43 1022 30.18 851 25.13 8 46.3 93 6.9 44.4 8.26 0.325
06:44 1022 30.18 851 25.13 8 46.4 93 6.9 44.5 8.28 0.326
06:45 1022 30.18 851 25.13 8 46.3 93 6.9 44.5 8.26 0.325
06:46 1022 30.18 851 25.13 7.9 46.3 93 6.9 44.4 8.31 0.327
06:47 1021 30.15 851 25.13 8 46.3 93 6.9 44.4 8.29 0.326
06:48 1021 30.15 851 25.13 8 46.4 93 7 44.5 8.33 0.328
06:49 1021 30.15 851 25.13 8 46.5 93 7 44.5 8.38 0.33
06:50 1021 30.15 851 25.13 8.1 46.5 92 6.9 44.4 8.45 0.333
06:51 1021 30.15 851 25.13 8.1 46.6 92 6.9 44.5 8.46 0.333
06:52 1021 30.15 851 25.13 8.2 46.8 92 6.9 44.5 8.5 0.335
06:53 1021 30.15 851 25.13 8.2 46.7 92 6.9 44.4 8.53 0.336
06:54 1021 30.15 851 25.13 8.2 46.7 91 6.8 44.3 8.58 0.338
06:55 1021 30.15 851 25.13 8.3 46.9 91 6.9 44.4 8.58 0.338
06:56 1021 30.15 851 25.13 8.3 46.9 91 6.9 44.3 8.62 0.339
06:57 1021 30.15 851 25.13 8.3 46.9 91 6.9 44.4 8.67 0.341
06:58 1021 30.15 851 25.13 8.3 46.9 91 6.9 44.4 8.65 0.341
06:59 1022 30.18 851 25.13 8.3 46.9 91 6.9 44.5 8.65 0.341
07:00 1022 30.18 851 25.13 8.3 46.9 91 6.9 44.5 8.64 0.34
07:01 1022 30.18 851 25.13 8.2 46.8 92 6.9 44.5 8.66 0.341
07:02 1022 30.18 851 25.13 8.2 46.8 92 7 44.6 8.61 0.339
07:03 1022 30.18 851 25.13 8.3 46.9 92 7.1 44.7 8.67 0.341
07:04 1022 30.18 851 25.13 8.3 47 92 7.1 44.9 8.65 0.341
07:05 1022 30.18 851 25.13 8.3 47 92 7.1 44.9 8.71 0.343
07:06 1022 30.18 851 25.13 8.4 47.1 92 7.2 45 8.72 0.343
07:07 1022 30.18 851 25.13 8.4 47.1 92 7.2 45 8.8 0.346
07:08 1022 30.18 851 25.13 8.4 47.2 93 7.3 45.1 8.86 0.349
07:09 1022 30.18 851 25.13 8.5 47.3 92 7.3 45.2 8.91 0.351
07:10 1022 30.18 851 25.13 8.6 47.4 92 7.4 45.3 8.93 0.352
07:11 1022 30.18 851 25.13 8.6 47.5 92 7.4 45.3 9 0.354
07:12 1022 30.18 851 25.13 8.7 47.6 92 7.4 45.4 9.04 0.356
07:13 1022 30.18 851 25.13 8.7 47.7 92 7.4 45.4 9.08 0.357
07:14 1022 30.18 851 25.13 8.8 47.8 91 7.4 45.4 9.16 0.361
07:15 1022 30.18 851 25.13 8.8 47.8 91 7.4 45.2 9.17 0.361
07:16 1022 30.18 851 25.13 8.8 47.8 90 7.3 45.1 9.17 0.361
07:17 1022 30.18 851 25.13 8.9 47.9 90 7.3 45.1 9.21 0.363
07:18 1022 30.18 851 25.13 8.9 48 90 7.4 45.3 9.26 0.365
07:19 1022 30.18 851 25.13 9 48.2 88 7.2 45 9.28 0.365
07:20 1022 30.18 851 25.13 9.1 48.3 89 7.3 45.2 9.34 0.368
07:21 1022 30.18 851 25.13 9.1 48.4 88 7.3 45.2 9.45 0.372
07:22 1022 30.18 851 25.13 9.2 48.5 88 7.4 45.3 9.52 0.375
07:23 1022 30.18 851 25.13 9.3 48.7 89 7.5 45.5 9.57 0.377
07:24 1022 30.18 851 25.13 9.3 48.8 89 7.6 45.6 9.71 0.382
07:25 1022 30.18 851 25.13 9.4 48.9 89 7.6 45.7 9.73 0.383
07:26 1022 30.18 851 25.13 9.4 48.9 87 7.4 45.3 9.79 0.385
07:27 1022 30.18 851 25.13 9.5 49 87 7.4 45.4 9.84 0.387
07:28 1022 30.18 851 25.13 9.5 49.2 87 7.5 45.5 9.89 0.389
07:29 1022 30.18 851 25.13 9.6 49.3 86 7.4 45.4 9.94 0.391
07:30 1022 30.18 851 25.13 9.7 49.4 87 7.5 45.6 10.02 0.394
07:31 1022 30.18 851 25.13 9.7 49.5 85 7.4 45.2 10.1 0.398
07:32 1022 30.18 851 25.13 9.8 49.6 85 7.4 45.4 10.11 0.398
07:33 1022 30.18 851 25.13 9.8 49.7 85 7.5 45.5 10.19 0.401
07:34 1022 30.18 851 25.13 9.9 49.8 85 7.6 45.6 10.26 0.404
07:35 1022 30.18 851 25.13 9.9 49.9 85 7.6 45.6 10.32 0.406
07:36 1022 30.18 851 25.13 9.9 49.8 85 7.5 45.6 10.25 0.404
07:37 1022 30.18 851 25.13 9.9 49.7 85 7.4 45.4 10.24 0.403
07:38 1022 30.18 851 25.13 9.8 49.7 86 7.6 45.7 10.19 0.401
07:39 1022 30.18 851 25.13 9.8 49.7 86 7.7 45.8 10.23 0.403
07:40 1022 30.18 851 25.13 9.9 49.9 86 7.7 45.9 10.37 0.408
07:41 1022 30.18 851 25.13 9.9 49.9 85 7.5 45.6 10.37 0.408
07:42 1022 30.18 851 25.13 10 50 82 7.2 44.9 10.44 0.411
07:43 1022 30.18 851 25.13 10.1 50.2 81 7 44.6 10.5 0.413
07:44 1022 30.18 851 25.13 10.2 50.3 79 6.8 44.3 10.58 0.417
07:45 1022 30.18 851 25.13 10.2 50.4 81 7.2 44.9 10.64 0.419
07:46 1022 30.18 851 25.13 10.2 50.4 80 7 44.6 10.66 0.42
07:47 1022 30.18 851 25.13 10.2 50.4 81 7.2 44.9 10.69 0.421
07:48 1022 30.18 851 25.13 10.2 50.4 81 7.1 44.8 10.61 0.418
07:49 1022 30.18 851 25.13 10.2 50.3 79 6.7 44 10.6 0.417
07:50 1022 30.18 851 25.13 10.2 50.3 80 6.8 44.3 10.55 0.415
07:51 1022 30.18 851 25.13 10.1 50.1 80 6.8 44.3 10.47 0.412
07:52 1022 30.18 851 25.13 10 50.1 80 6.8 44.2 10.45 0.411
07:53 1022 30.18 851 25.13 10 50 83 7.3 45.1 10.41 0.41
07:54 1022 30.18 851 25.13 10 50 82 7.1 44.9 10.44 0.411
07:55 1022 30.18 851 25.13 10 49.9 82 7 44.6 10.4 0.409
07:56 1022 30.18 851 25.13 10 49.9 80 6.7 44.1 10.41 0.41
07:57 1022 30.18 851 25.13 9.9 49.9 81 6.8 44.3 10.37 0.408
07:58 1022 30.18 851 25.13 9.9 49.9 81 6.9 44.3 10.38 0.409
07:59 1022 30.18 851 25.13 10 49.9 83 7.1 44.9 10.39 0.409
08:00 1022 30.18 851 25.13 10 50.1 81 7 44.6 10.41 0.41
08:01 1022 30.18 851 25.13 10.1 50.1 82 7.2 44.9 10.43 0.411
08:02 1022 30.18 851 25.13 10.1 50.2 83 7.3 45.2 10.48 0.413
08:03 1022 30.18 851 25.13 10.1 50.2 82 7.3 45.1 10.48 0.413
08:04 1022 30.18 851 25.13 10.2 50.3 83 7.4 45.3 10.51 0.414
08:05 1022 30.18 851 25.13 10.2 50.3 82 7.2 45 10.57 0.416
08:06 1022 30.18 851 25.13 10.2 50.3 82 7.2 45 10.5 0.413
08:07 1022 30.18 851 25.13 10.2 50.3 84 7.5 45.5 10.53 0.415
08:08 1022 30.18 851 25.13 10.1 50.3 82 7.2 45 10.52 0.414
08:09 1022 30.18 851 25.13 10.1 50.2 83 7.4 45.4 10.45 0.411
08:10 1022 30.18 851 25.13 10.1 50.2 83 7.4 45.3 10.43 0.411
08:11 1022 30.18 851 25.13 10.1 50.2 82 7.2 45 10.43 0.411
08:12 1022 30.18 851 25.13 10 50.1 82 7.2 44.9 10.37 0.408
08:13 1022 30.18 851 25.13 10 50 82 7.1 44.9 10.33 0.407
08:14 1022 30.18 851 25.13 10 49.9 82 7.1 44.8 10.29 0.405
08:15 1022 30.18 851 25.13 9.9 49.9 82 7 44.7 10.29 0.405
08:16 1022 30.18 851 25.13 9.9 49.8 83 7.2 45 10.27 0.404
08:17 1022 30.18 851 25.13 9.9 49.8 82 7 44.7 10.22 0.402
08:18 1022 30.18 851 25.13 9.9 49.7 83 7.1 44.9 10.24 0.403
08:19 1022 30.18 851 25.13 9.9 49.8 83 7.2 44.9 10.26 0.404
08:20 1022 30.18 851 25.13 9.9 49.8 83 7.2 44.9 10.28 0.405
08:21 1022 30.18 851 25.13 9.9 49.9 83 7.2 44.9 10.31 0.406
08:22 1022 30.18 851 25.13 10 49.9 84 7.4 45.2 10.36 0.408
08:23 1022 30.18 851 25.13 10 50 85 7.6 45.6 10.41 0.41
08:24 1022 30.18 851 25.13 10.1 50.1 84 7.5 45.6 10.52 0.414
08:25 1022 30.18 851 25.13 10.2 50.3 83 7.4 45.3 10.52 0.414
08:26 1022 30.18 851 25.13 10.2 50.3 83 7.3 45.2 10.58 0.417
08:27 1022 30.18 851 25.13 10.2 50.3 83 7.5 45.4 10.59 0.417
08:28 1022 30.18 851 25.13 10.2 50.4 84 7.6 45.6 10.66 0.42
08:29 1022 30.18 851 25.13 10.3 50.5 83 7.6 45.6 10.63 0.419
08:30 1022 30.18 851 25.13 10.3 50.5 82 7.4 45.4 10.68 0.42
08:31 1022 30.18 851 25.13 10.3 50.5 82 7.3 45.2 10.68 0.42
08:32 1022 30.18 851 25.13 10.3 50.5 82 7.4 45.4 10.65 0.419
08:33 1022 30.18 851 25.13 10.3 50.6 83 7.5 45.6 10.72 0.422
08:34 1022 30.18 851 25.13 10.3 50.6 83 7.6 45.6 10.77 0.424
08:35 1022 30.18 851 25.13 10.4 50.7 82 7.4 45.3 10.81 0.426
08:36 1022 30.18 851 25.13 10.5 50.8 82 7.5 45.5 10.91 0.43
08:37 1022 30.18 851 25.13 10.6 51.1 82 7.6 45.7 11.1 0.437
08:38 1022 30.18 851 25.13 10.8 51.4 81 7.6 45.6 11.22 0.442
08:39 1022 30.18 851 25.13 10.9 51.6 83 8.1 46.5 11.39 0.448
08:40 1022 30.18 851 25.13 11 51.7 80 7.6 45.7 11.46 0.451
08:41 1022 30.18 851 25.13 11 51.7 81 7.9 46.1 11.42 0.45
08:42 1022 30.18 851 25.13 11 51.8 80 7.8 46 11.48 0.452
08:43 1022 30.18 851 25.13 11 51.7 80 7.7 45.8 11.43 0.45
08:44 1022 30.18 851 25.13 11 51.7 79 7.5 45.4 11.47 0.452
08:45 1022 30.18 851 25.13 11 51.7 79 7.4 45.4 11.5 0.453
08:46 1022 30.18 851 25.13 11 51.8 79 7.6 45.7 11.52 0.454
08:47 1022 30.18 851 25.13 11.1 51.9 78 7.4 45.4 11.62 0.457
08:48 1022 30.18 851 25.13 11.2 52.1 78 7.5 45.5 11.72 0.461
08:49 1022 30.18 851 25.13 11.3 52.3 76 7.3 45.2 11.83 0.466
08:50 1022 30.18 851 25.13 11.4 52.4 75 7.1 44.8 11.92 0.469
08:51 1022 30.18 851 25.13 11.4 52.6 79 7.9 46.2 11.96 0.471
08:52 1022 30.18 851 25.13 11.5 52.7 75 7.3 45.1 12.13 0.478
08:53 1022 30.18 851 25.13 11.7 53 73 7.1 44.8 12.31 0.485
08:54 1022 30.18 851 25.13 11.9 53.4 75 7.6 45.7 12.47 0.491
08:55 1022 30.18 851 25.13 12 53.5 73 7.2 45 12.65 0.498
08:56 1022 30.18 851 25.13 12.1 53.8 72 7.2 45 12.75 0.502
08:57 1022 30.18 851 25.13 12.2 54 75 7.8 46.1 12.85 0.506
08:58 1022 30.18 851 25.13 12.3 54.1 73 7.5 45.6 12.93 0.509
08:59 1022 30.18 851 25.13 12.4 54.3 72 7.6 45.7 13 0.512
09:00 1022 30.18 851 25.13 12.5 54.5 71 7.5 45.6 13.04 0.513
09:01 1022 30.18 851 25.13 12.7 54.8 72 7.7 45.9 13.08 0.515
09:02 1022 30.18 851 25.13 12.8 55 71 7.7 45.9 13.29 0.523
09:03 1022 30.18 851 25.13 12.8 55 73 8.2 46.7 13.38 0.527
09:04 1022 30.18 851 25.13 12.8 55 69 7.3 45.1 13.35 0.526
09:05 1022 30.18 851 25.13 12.7 54.9 72 7.8 46.1 13.31 0.524
09:06 1022 30.18 851 25.13 12.7 54.9 71 7.6 45.7 13.35 0.526
09:07 1022 30.18 851 25.13 12.8 55 70 7.6 45.7 13.44 0.529
09:08 1022 30.18 851 25.13 12.9 55.1 70 7.6 45.7 13.38 0.527
09:09 1022 30.18 851 25.13 12.8 55 72 7.8 46.1 13.25 0.522
09:10 1022 30.18 851 25.13 12.8 55 69 7.3 45.1 13.24 0.521
09:11 1022 30.18 851 25.13 12.7 54.9 71 7.7 45.8 13.17 0.519
09:12 1022 30.18 851 25.13 12.8 55 73 8 46.4 13.2 0.52
09:13 1022 30.18 851 25.13 12.8 55 69 7.2 45 13.22 0.52
09:14 1022 30.18 851 25.13 12.8 55 70 7.4 45.3 13.27 0.522
09:15 1022 30.18 851 25.13 12.9 55.2 73 8.2 46.7 13.38 0.527
09:16 1022 30.18 851 25.13 13 55.5 73 8.3 46.9 13.47 0.53
09:17 1022 30.18 851 25.13 13 55.4 71 7.9 46.2 13.46 0.53
09:18 1022 30.18 851 25.13 13 55.4 73 8.3 46.9 13.48 0.531
09:19 1022 30.18 851 25.13 13 55.4 71 8 46.3 13.48 0.531
09:20 1022 30.18 851 25.13 13 55.5 71 7.9 46.1 13.56 0.534
09:21 1022 30.18 851 25.13 13.1 55.6 71 7.9 46.3 13.61 0.536
09:22 1022 30.18 851 25.13 13 55.5 70 7.8 46.1 13.54 0.533
09:23 1022 30.18 851 25.13 13 55.4 68 7.4 45.2 13.43 0.529
09:24 1022 30.18 851 25.13 12.9 55.3 71 7.8 46 13.34 0.525
09:25 1022 30.18 851 25.13 13 55.3 74 8.5 47.2 13.4 0.528
09:26 1022 30.18 851 25.13 13.1 55.5 72 8.2 46.8 13.54 0.533
09:27 1022 30.18 851 25.13 13.2 55.7 68 7.4 45.4 13.59 0.535
09:28 1022 30.18 851 25.13 13.1 55.5 72 8.1 46.6 13.53 0.533
09:29 1022 30.18 851 25.13 13.1 55.6 69 7.6 45.7 13.54 0.533
09:30 1022 30.18 851 25.13 13.2 55.7 72 8.3 46.9 13.63 0.537
09:31 1022 30.18 851 25.13 13.3 55.9 74 8.8 47.8 13.72 0.54
09:32 1022 30.18 851 25.13 13.3 55.9 69 7.7 45.9 13.72 0.54
09:33 1022 30.18 851 25.13 13.3 55.9 70 7.9 46.3 13.65 0.537
09:34 1022 30.18 851 25.13 13.4 56.1 71 8.2 46.8 13.88 0.546
09:35 1022 30.18 851 25.13 13.5 56.3 67 7.6 45.6 14.02 0.552
09:36 1022 30.18 851 25.13 13.5 56.4 73 8.8 47.8 14.03 0.552
09:37 1022 30.18 851 25.13 13.5 56.2 67 7.6 45.7 13.96 0.55
09:38 1022 30.18 851 25.13 13.3 56 68 7.6 45.7 13.79 0.543
09:39 1022 30.18 851 25.13 13.3 56 72 8.5 47.2 13.83 0.544
09:40 1022 30.18 851 25.13 13.4 56 67 7.4 45.4 13.85 0.545
09:41 1022 30.18 851 25.13 13.3 56 70 8 46.4 13.76 0.542
09:42 1022 30.18 851 25.13 13.5 56.2 72 8.6 47.4 13.93 0.548
09:43 1022 30.18 851 25.13 13.6 56.5 69 8.1 46.6 14.11 0.556
09:44 1022 30.18 851 25.13 13.7 56.7 67 7.9 46.1 14.18 0.558
09:45 1022 30.18 851 25.13 13.8 56.9 71 8.7 47.7 14.33 0.564
09:46 1022 30.18 851 25.13 14.1 57.3 67 8.1 46.5 14.53 0.572
09:47 1022 30.18 851 25.13 14.1 57.4 72 9.1 48.5 14.59 0.574
09:48 1022 30.18 851 25.13 14.2 57.6 66 8.1 46.5 14.63 0.576
09:49 1022 30.18 851 25.13 14 57.2 68 8.3 46.9 14.43 0.568
09:50 1022 30.18 851 25.13 13.8 56.8 66 7.5 45.5 14.35 0.565
09:51 1022 30.18 851 25.13 13.8 56.9 66 7.6 45.7 14.36 0.565
09:52 1022 30.18 851 25.13 13.9 57 65 7.6 45.7 14.45 0.569
09:53 1022 30.18 851 25.13 13.9 57 64 7.3 45.1 14.4 0.567
09:54 1022 30.18 851 25.13 13.9 57 66 7.6 45.7 14.36 0.565
09:55 1022 30.18 851 25.13 13.9 57 67 8 46.4 14.41 0.567
09:56 1022 30.18 851 25.13 13.9 57 67 7.8 46.1 14.37 0.566
09:57 1022 30.18 851 25.13 13.9 57 67 8 46.4 14.43 0.568
09:58 1022 30.18 851 25.13 14 57.1 67 8 46.4 14.46 0.569
09:59 1022 30.18 851 25.13 14.1 57.4 70 8.8 47.9 14.61 0.575
10:00 1022 30.18 851 25.13 14.3 57.8 68 8.5 47.2 14.83 0.584
10:01 1022 30.18 851 25.13 14.4 58 66 8.2 46.8 14.91 0.587
10:02 1022 30.18 851 25.13 14.5 58.2 68 8.7 47.7 14.92 0.587
10:03 1022 30.18 851 25.13 14.6 58.2 64 7.9 46.2 14.92 0.587
10:04 1022 30.18 851 25.13 14.4 58 64 7.7 45.9 14.81 0.583
10:05 1022 30.18 851 25.13 14.4 57.8 66 8.2 46.8 14.72 0.58
10:06 1022 30.18 851 25.13 14.4 58 64 7.9 46.2 14.79 0.582
10:07 1022 30.18 851 25.13 14.5 58 63 7.7 45.8 14.8 0.583
10:08 1022 30.18 851 25.13 14.4 57.9 59 6.6 43.8 14.74 0.58
10:09 1022 30.18 851 25.13 14.3 57.7 61 7 44.5 14.59 0.574
10:10 1022 30.18 851 25.13 14.2 57.6 63 7.4 45.3 14.59 0.574
10:11 1022 30.18 851 25.13 14.2 57.6 64 7.5 45.4 14.71 0.579
10:12 1022 30.18 851 25.13 14.1 57.5 61 6.7 44.1 14.6 0.575
10:13 1022 30.18 851 25.13 14 57.3 64 7.3 45.2 14.47 0.57
10:14 1022 30.18 851 25.13 14 57.1 63 7.2 44.9 14.48 0.57
10:15 1022 30.18 851 25.13 14.1 57.3 63 7.1 44.9 14.53 0.572
10:16 1022 30.18 851 25.13 14.2 57.6 64 7.7 45.8 14.67 0.578
10:17 1022 30.18 851 25.13 14.4 57.8 72 9.4 48.9 14.77 0.581
10:18 1022 30.18 851 25.13 14.5 58 65 8.1 46.6 14.93 0.588
10:19 1022 30.18 851 25.13 14.4 57.9 63 7.6 45.7 14.83 0.584
10:20 1022 30.18 851 25.13 14.3 57.8 66 8.2 46.8 14.75 0.581
10:21 1022 30.18 851 25.13 14.3 57.8 65 8 46.4 14.77 0.581
10:22 1022 30.18 851 25.13 14.2 57.6 63 7.3 45.1 14.62 0.576
10:23 1022 30.18 851 25.13 14.2 57.5 65 7.7 45.9 14.53 0.572
10:24 1022 30.18 851 25.13 14.3 57.7 62 7.2 44.9 14.62 0.576
10:25 1022 30.18 851 25.13 14.3 57.8 64 7.7 45.9 14.69 0.578
10:26 1022 30.18 851 25.13 14.4 57.9 65 8.1 46.5 14.84 0.584
10:27 1022 30.18 851 25.13 14.5 58.1 69 8.9 48.1 14.92 0.587
10:28 1022 30.18 851 25.13 14.6 58.3 64 7.9 46.2 15.06 0.593
10:29 1022 30.18 851 25.13 14.7 58.5 64 8.1 46.5 15.11 0.595
10:30 1022 30.18 851 25.13 14.7 58.5 68 9 48.2 15.13 0.596
10:31 1022 30.18 851 25.13 14.7 58.4 68 8.9 47.9 15.03 0.592
10:32 1022 30.18 851 25.13 14.5 58.2 71 9.5 49 14.88 0.586
10:33 1022 30.18 851 25.13 14.4 58 67 8.5 47.3 14.72 0.58
10:34 1022 30.18 851 25.13 14.3 57.7 69 8.7 47.7 14.43 0.568
10:35 1022 30.18 851 25.13 14.3 57.7 70 8.9 48 14.48 0.57
10:36 1022 30.18 851 25.13 14.4 57.9 71 9.3 48.8 14.52 0.572
10:37 1022 30.18 851 25.13 14.5 58.1 66 8.3 46.9 14.7 0.579
10:38 1022 30.18 851 25.13 14.5 58.2 75 10.1 50.3 14.74 0.58
10:39 1022 30.18 851 25.13 14.7 58.4 68 9 48.1 14.96 0.589
10:40 1022 30.18 851 25.13 14.6 58.2 65 8.2 46.7 14.77 0.581
10:41 1022 30.18 851 25.13 14.4 57.9 74 9.8 49.7 14.65 0.577
10:42 1022 30.18 851 25.13 14.5 58 70 9 48.3 14.67 0.578
10:43 1022 30.18 851 25.13 14.5 58.1 67 8.5 47.2 14.67 0.578
10:44 1022 30.18 851 25.13 14.5 58.1 67 8.6 47.5 14.6 0.575
10:45 1022 30.18 851 25.13 14.6 58.2 71 9.4 49 14.67 0.578
10:46 1022 30.18 851 25.13 14.6 58.4 66 8.5 47.3 14.73 0.58
10:47 1022 30.18 851 25.13 14.7 58.4 65 8.2 46.8 14.75 0.581
10:48 1022 30.18 851 25.13 14.7 58.5 63 7.9 46.2 14.73 0.58
10:49 1022 30.18 851 25.13 14.8 58.6 62 7.7 45.8 14.79 0.582
10:50 1022 30.18 851 25.13 14.8 58.6 63 7.8 46 14.75 0.581
10:51 1022 30.18 851 25.13 14.7 58.5 62 7.7 45.8 14.69 0.578
10:52 1022 30.18 851 25.13 14.7 58.4 68 8.9 48.1 14.77 0.581
10:53 1022 30.18 851 25.13 14.8 58.6 67 8.7 47.7 14.81 0.583
10:54 1022 30.18 851 25.13 15 58.9 65 8.4 47.2 14.98 0.59
10:55 1022 30.18 851 25.13 14.9 58.9 62 7.8 46 14.87 0.585
10:56 1022 30.18 851 25.13 14.8 58.6 61 7.5 45.6 14.85 0.585
10:57 1022 30.18 851 25.13 14.6 58.4 63 7.7 45.9 14.78 0.582
10:58 1022 30.18 851 25.13 14.6 58.2 62 7.5 45.5 14.78 0.582
10:59 1022 30.18 851 25.13 14.5 58.1 64 8 46.3 14.78 0.582
11:00 1022 30.18 851 25.13 14.6 58.2 62 7.3 45.2 14.81 0.583
11:01 1022 30.18 851 25.13 14.6 58.2 62 7.5 45.4 14.71 0.579
11:02 1022 30.18 851 25.13 14.6 58.3 62 7.5 45.5 14.79 0.582
11:03 1022 30.18 851 25.13 14.6 58.3 70 9.2 48.5 14.93 0.588
11:04 1022 30.18 851 25.13 14.8 58.6 66 8.5 47.3 15.15 0.596
11:05 1022 30.18 851 25.13 14.9 58.9 61 7.5 45.4 15.32 0.603
11:06 1022 30.18 851 25.13 14.9 58.9 65 8.4 47.1 15.33 0.604
11:07 1022 30.18 851 25.13 15.1 59.3 69 9.5 49.1 15.53 0.611
11:08 1022 30.18 851 25.13 15.3 59.6 65 8.8 47.9 15.64 0.616
11:09 1022 30.18 851 25.13 15.2 59.4 64 8.5 47.2 15.51 0.611
11:10 1022 30.18 851 25.13 15.1 59.1 64 8.4 47.2 15.38 0.606
11:11 1022 30.18 851 25.13 14.9 58.9 66 8.8 47.9 15.29 0.602
11:12 1022 30.18 851 25.13 14.9 58.8 64 8.3 46.9 15.3 0.602
11:13 1022 30.18 851 25.13 14.8 58.7 68 9.1 48.3 15.24 0.6
11:14 1022 30.18 851 25.13 14.8 58.6 64 8.1 46.5 15.17 0.597
11:15 1022 30.18 851 25.13 14.8 58.6 63 8 46.4 15.24 0.6
11:16 1022 30.18 851 25.13 14.9 58.8 62 7.7 45.9 15.36 0.605
11:17 1022 30.18 851 25.13 15.1 59.2 62 7.8 46.1 15.55 0.612
11:18 1021 30.15 851 25.13 15.3 59.5 63 8.4 47.1 15.68 0.617
11:19 1021 30.15 851 25.13 15.4 59.8 62 8.2 46.8 15.84 0.624
11:20 1021 30.15 851 25.13 15.5 59.9 62 8.2 46.8 15.86 0.624
11:21 1022 30.18 851 25.13 15.3 59.5 59 7.4 45.2 15.64 0.616
11:22 1022 30.18 851 25.13 15.3 59.5 61 7.9 46.2 15.58 0.613
11:23 1022 30.18 851 25.13 15.3 59.6 57 7 44.6 15.57 0.613
11:24 1021 30.15 851 25.13 15.4 59.7 58 7.2 44.9 15.5 0.61
11:25 1021 30.15 851 25.13 15.4 59.7 63 8.3 47 15.47 0.609
11:26 1021 30.15 851 25.13 15.4 59.7 60 7.7 45.9 15.56 0.613
11:27 1021 30.15 851 25.13 15.2 59.3 59 7.3 45.1 15.44 0.608
11:28 1021 30.15 851 25.13 15 59.1 68 9.1 48.4 15.28 0.602
11:29 1021 30.15 851 25.13 15 58.9 62 7.7 45.9 15.31 0.603
11:30 1021 30.15 851 25.13 15 58.9 65 8.6 47.5 15.3 0.602
11:31 1021 30.15 851 25.13 15 58.9 65 8.6 47.5 15.24 0.6
11:32 1021 30.15 851 25.13 15 58.9 64 8.2 46.7 15.17 0.597
11:33 1021 30.15 851 25.13 15 59 63 8.2 46.8 15.3 0.602
11:34 1021 30.15 850 25.1 15 58.9 65 8.6 47.5 15.33 0.604
11:35 1021 30.15 851 25.13 15 59 68 9.2 48.5 15.42 0.607
11:36 1021 30.15 851 25.13 15 59.1 62 7.9 46.3 15.43 0.607
11:37 1021 30.15 851 25.13 15 59 61 7.6 45.8 15.42 0.607
11:38 1021 30.15 851 25.13 14.9 58.8 61 7.5 45.5 15.32 0.603
11:39 1021 30.15 851 25.13 14.9 58.9 64 8.2 46.7 15.38 0.606
11:40 1021 30.15 851 25.13 15 59.1 65 8.6 47.6 15.5 0.61
11:41 1021 30.15 851 25.13 15.2 59.3 65 8.7 47.6 15.52 0.611
11:42 1021 30.15 851 25.13 15.1 59.2 62 8 46.3 15.47 0.609
11:43 1021 30.15 850 25.1 15.1 59.2 61 7.7 45.9 15.3 0.602
11:44 1021 30.15 850 25.1 15 59.1 65 8.5 47.3 15.22 0.599
11:45 1021 30.15 850 25.1 15.1 59.2 65 8.6 47.4 15.26 0.601
11:46 1021 30.15 850 25.1 15.2 59.4 66 8.9 48 15.46 0.609
11:47 1021 30.15 850 25.1 15.3 59.6 67 9.2 48.6 15.64 0.616
11:48 1021 30.15 850 25.1 15.4 59.7 64 8.7 47.6 15.75 0.62
11:49 1021 30.15 850 25.1 15.4 59.8 62 8.2 46.8 15.83 0.623
11:50 1021 30.15 850 25.1 15.4 59.8 66 9.1 48.5 15.81 0.622
11:51 1021 30.15 851 25.13 15.4 59.7 68 9.7 49.4 15.79 0.622
11:52 1021 30.15 851 25.13 15.4 59.7 59 7.6 45.7 15.81 0.622
11:53 1021 30.15 851 25.13 15.3 59.5 59 7.4 45.3 15.7 0.618
11:54 1021 30.15 851 25.13 15.3 59.5 57 6.9 44.4 15.66 0.617
11:55 1021 30.15 851 25.13 15.3 59.5 58 7.1 44.8 15.59 0.614
11:56 1021 30.15 851 25.13 15.2 59.4 63 8.4 47.1 15.58 0.613
11:57 1021 30.15 851 25.13 15.2 59.4 62 8 46.4 15.6 0.614
11:58 1021 30.15 850 25.1 15.3 59.6 63 8.4 47.1 15.7 0.618
11:59 1021 30.15 851 25.13 15.5 59.9 68 9.7 49.4 15.79 0.622
12:00 1021 30.15 851 25.13 15.6 60 61 8.1 46.6 15.77 0.621
12:01 1021 30.15 851 25.13 15.6 60.1 60 7.9 46.1 15.69 0.618
12:02 1021 30.15 851 25.13 15.6 60.1 64 8.8 47.8 15.72 0.619
12:03 1021 30.15 851 25.13 15.6 60.1 62 8.3 47 15.81 0.622
12:04 1021 30.15 851 25.13 15.6 60.1 70 10.2 50.4 15.79 0.622
12:05 1021 30.15 851 25.13 15.8 60.4 60 8.1 46.5 15.96 0.628
12:06 1021 30.15 851 25.13 15.6 60 61 8.1 46.6 15.75 0.62
12:07 1021 30.15 851 25.13 15.4 59.6 61 8 46.4 15.58 0.613
12:08 1021 30.15 851 25.13 15.4 59.6 58 7.3 45.1 15.53 0.611
12:09 1021 30.15 851 25.13 15.3 59.6 59 7.4 45.4 15.39 0.606
12:10 1021 30.15 851 25.13 15.4 59.6 60 7.7 45.9 15.5 0.61
12:11 1021 30.15 851 25.13 15.4 59.8 62 8.3 47 15.61 0.615
12:12 1021 30.15 851 25.13 15.6 60 64 8.8 47.9 15.74 0.62
12:13 1021 30.15 851 25.13 15.7 60.3 59 7.8 46 15.85 0.624
12:14 1021 30.15 851 25.13 15.8 60.4 60 8 46.5 15.9 0.626
12:15 1021 30.15 851 25.13 15.9 60.5 65 9.4 48.9 16.03 0.631
12:16 1021 30.15 851 25.13 16.1 60.9 59 8.1 46.6 16.34 0.643
12:17 1021 30.15 851 25.13 16.2 61.2 67 10.2 50.4 16.48 0.649
12:18 1021 30.15 851 25.13 16.3 61.3 60 8.5 47.3 16.44 0.647
12:19 1021 30.15 851 25.13 16.1 60.9 57 7.7 45.8 16.13 0.635
12:20 1021 30.15 851 25.13 15.8 60.4 62 8.6 47.5 15.88 0.625
12:21 1021 30.15 851 25.13 15.6 60 58 7.5 45.5 15.83 0.623
12:22 1021 30.15 851 25.13 15.5 59.9 62 8.2 46.8 15.74 0.62
12:23 1021 30.15 851 25.13 15.4 59.8 62 8.2 46.8 15.77 0.621
12:24 1021 30.15 851 25.13 15.4 59.8 62 8.2 46.8 15.61 0.615
12:25 1021 30.15 851 25.13 15.5 59.9 66 9.2 48.6 15.79 0.622
12:26 1021 30.15 851 25.13 15.8 60.4 65 9.3 48.8 16.09 0.633
12:27 1021 30.15 851 25.13 16 60.8 59 8.1 46.6 16.33 0.643
12:28 1021 30.15 851 25.13 16.1 61 55 7.3 45.1 16.44 0.647
12:29 1021 30.15 851 25.13 16.1 61 59 8.1 46.5 16.41 0.646
12:30 1021 30.15 851 25.13 16.1 61 63 9 48.3 16.34 0.643
12:31 1021 30.15 851 25.13 16.1 60.9 57 7.6 45.7 16.32 0.643
12:32 1021 30.15 851 25.13 16.2 61.1 60 8.5 47.3 16.22 0.639
12:33 1021 30.15 851 25.13 16.2 61.1 57 7.8 46.1 16.18 0.637
12:34 1021 30.15 851 25.13 16.2 61.1 61 8.7 47.6 16.29 0.641
12:35 1021 30.15 850 25.1 16.4 61.4 62 9.1 48.4 16.63 0.655
12:36 1021 30.15 851 25.13 16.6 62 63 9.8 49.6 16.85 0.663
12:37 1021 30.15 851 25.13 16.8 62.2 58 8.5 47.3 16.95 0.667
12:38 1021 30.15 851 25.13 16.9 62.5 61 9.4 49 17.13 0.674
12:39 1021 30.15 851 25.13 17.1 62.8 58 9 48.1 17.3 0.681
12:40 1021 30.15 851 25.13 17.2 62.9 60 9.3 48.8 17.32 0.682
12:41 1021 30.15 851 25.13 17 62.5 54 7.6 45.8 17.13 0.674
12:42 1021 30.15 850 25.1 16.6 62 59 8.6 47.4 16.93 0.667
12:43 1021 30.15 850 25.1 16.6 61.9 62 9.3 48.7 16.92 0.666
12:44 1021 30.15 850 25.1 16.7 62 56 8 46.3 16.91 0.666
12:45 1021 30.15 850 25.1 16.4 61.5 61 9 48.2 16.71 0.658
12:46 1021 30.15 850 25.1 16.2 61.1 59 8.2 46.7 16.46 0.648
12:47 1021 30.15 850 25.1 16.2 61.1 60 8.6 47.4 16.48 0.649
12:48 1021 30.15 850 25.1 16.3 61.3 62 9.1 48.4 16.47 0.648
12:49 1021 30.15 850 25.1 16.3 61.3 58 8 46.4 16.49 0.649
12:50 1021 30.15 850 25.1 16.2 61.2 61 8.7 47.7 16.43 0.647
12:51 1021 30.15 850 25.1 16.3 61.3 58 8 46.4 16.52 0.65
12:52 1021 30.15 850 25.1 16 60.9 55 7.2 44.9 16.3 0.642
12:53 1021 30.15 850 25.1 15.8 60.4 57 7.4 45.3 16.16 0.636
12:54 1021 30.15 850 25.1 15.8 60.4 59 7.9 46.2 16.06 0.632
12:55 1021 30.15 850 25.1 15.8 60.5 55 7 44.6 16.14 0.635
12:56 1021 30.15 850 25.1 15.9 60.7 57 7.4 45.4 16.18 0.637
12:57 1021 30.15 850 25.1 16 60.8 58 7.8 46.1 16.35 0.644
12:58 1021 30.15 850 25.1 16.1 61 61 8.7 47.6 16.49 0.649
12:59 1021 30.15 850 25.1 16.2 61.1 55 7.1 44.8 16.6 0.654
13:00 1021 30.15 850 25.1 16.1 61 60 8.5 47.2 16.47 0.648
13:01 1021 30.15 850 25.1 16 60.8 61 8.5 47.3 16.37 0.644
13:02 1021 30.15 850 25.1 15.9 60.6 65 9.4 48.9 16.27 0.641
13:03 1021 30.15 850 25.1 15.8 60.4 65 9.2 48.5 16.15 0.636
13:04 1021 30.15 850 25.1 15.8 60.4 59 7.9 46.2 16.06 0.632
13:05 1021 30.15 850 25.1 15.7 60.2 65 9.3 48.7 16.04 0.631
13:06 1021 30.15 850 25.1 15.7 60.3 62 8.5 47.3 16.14 0.635
13:07 1021 30.15 850 25.1 15.7 60.2 66 9.4 49 16.09 0.633
13:08 1021 30.15 850 25.1 15.7 60.2 62 8.6 47.5 16.05 0.632
13:09 1021 30.15 850 25.1 15.7 60.3 62 8.6 47.5 15.96 0.628
13:10 1021 30.15 850 25.1 15.7 60.3 57 7.3 45.1 15.91 0.626
13:11 1021 30.15 850 25.1 15.6 60.1 62 8.4 47.1 15.82 0.623
13:12 1021 30.15 850 25.1 15.6 60 60 7.9 46.2 15.82 0.623
13:13 1021 30.15 850 25.1 15.5 59.9 65 8.9 48.1 15.83 0.623
13:14 1021 30.15 850 25.1 15.5 60 59 7.7 45.9 15.87 0.625
13:15 1021 30.15 850 25.1 15.4 59.8 58 7.3 45.2 15.82 0.623
13:16 1021 30.15 850 25.1 15.4 59.6 63 8.4 47.2 15.77 0.621
13:17 1021 30.15 850 25.1 15.4 59.7 59 7.5 45.5 15.75 0.62
13:18 1021 30.15 850 25.1 15.4 59.7 59 7.4 45.4 15.77 0.621
13:19 1021 30.15 850 25.1 15.4 59.6 61 7.9 46.3 15.74 0.62
13:20 1021 30.15 850 25.1 15.4 59.8 60 7.7 45.9 15.83 0.623
13:21 1021 30.15 850 25.1 15.4 59.7 60 7.7 45.9 15.74 0.62
13:22 1021 30.15 850 25.1 15.3 59.6 59 7.3 45.2 15.69 0.618
13:23 1021 30.15 850 25.1 15.3 59.5 61 7.9 46.1 15.57 0.613
13:24 1021 30.15 850 25.1 15.3 59.6 57 6.9 44.4 15.7 0.618
13:25 1021 30.15 850 25.1 15.4 59.7 55 6.5 43.7 15.74 0.62
13:26 1021 30.15 850 25.1 15.5 59.8 61 7.9 46.3 15.83 0.623
13:27 1021 30.15 850 25.1 15.5 60 62 8.3 46.9 16.03 0.631
13:28 1021 30.15 850 25.1 15.7 60.3 55 6.7 44.1 16.17 0.637
13:29 1021 30.15 850 25.1 15.9 60.6 61 8.5 47.3 16.32 0.643
13:30 1021 30.15 850 25.1 16 60.8 60 8.4 47.1 16.5 0.65
13:31 1021 30.15 850 25.1 16.1 60.9 59 8.1 46.7 16.57 0.652
13:32 1021 30.15 850 25.1 16.2 61.1 53 6.8 44.2 16.68 0.657
13:33 1021 30.15 850 25.1 16.2 61.2 61 8.9 47.9 16.74 0.659
13:34 1021 30.15 850 25.1 16.3 61.3 61 8.9 48 16.88 0.665
13:35 1021 30.15 850 25.1 16.5 61.7 57 8 46.4 17.01 0.67
13:36 1021 30.15 850 25.1 16.7 62 56 7.9 46.2 17.04 0.671
13:37 1021 30.15 850 25.1 16.7 62.1 61 9.1 48.4 17.15 0.675
13:38 1021 30.15 850 25.1 16.8 62.3 61 9.3 48.8 17.26 0.68
13:39 1021 30.15 850 25.1 17 62.6 53 7.4 45.2 17.45 0.687
13:40 1021 30.15 850 25.1 16.9 62.3 50 6.6 43.8 17.34 0.683
13:41 1021 30.15 850 25.1 16.7 62 55 7.7 45.9 17.19 0.677
13:42 1021 30.15 850 25.1 16.6 61.9 53 7.1 44.7 17.13 0.674
13:43 1021 30.15 850 25.1 16.7 62.1 50 6.5 43.6 17.18 0.676
13:44 1021 30.15 850 25.1 16.6 62 54 7.5 45.5 17.11 0.674
13:45 1021 30.15 850 25.1 16.6 61.9 56 7.8 46 17.19 0.677
13:46 1021 30.15 850 25.1 16.8 62.2 50 6.5 43.7 17.33 0.682
13:47 1021 30.15 850 25.1 16.8 62.2 56 8 46.4 17.38 0.684
13:48 1021 30.15 850 25.1 17.1 62.7 57 8.6 47.5 17.64 0.694
13:49 1021 30.15 850 25.1 17.3 63.2 58 9.1 48.3 17.88 0.704
13:50 1021 30.15 850 25.1 17.4 63.3 52 7.4 45.4 17.94 0.706
13:51 1021 30.15 850 25.1 17.3 63.1 56 8.6 47.5 17.81 0.701
13:52 1021 30.15 850 25.1 17.1 62.8 56 8.5 47.3 17.67 0.696
13:53 1021 30.15 850 25.1 17.1 62.8 51 6.9 44.4 17.58 0.692
13:54 1021 30.15 850 25.1 17.1 62.7 53 7.6 45.8 17.55 0.691
13:55 1021 30.15 850 25.1 17 62.6 49 6.2 43.2 17.49 0.689
13:56 1021 30.15 850 25.1 16.9 62.4 58 8.8 47.8 17.43 0.686
13:57 1021 30.15 850 25.1 17.1 62.7 58 8.9 47.9 17.6 0.693
13:58 1021 30.15 850 25.1 17.3 63.1 51 7.3 45.1 17.84 0.702
13:59 1021 30.15 850 25.1 17.4 63.4 52 7.6 45.8 17.88 0.704
14:00 1021 30.15 850 25.1 17.4 63.3 53 7.8 46.1 17.94 0.706
14:01 1021 30.15 850 25.1 17.4 63.2 54 8.2 46.7 17.9 0.705
14:02 1021 30.15 850 25.1 17.2 63 55 8.2 46.8 17.68 0.696
14:03 1021 30.15 850 25.1 17.2 63 53 7.6 45.7 17.74 0.698
14:04 1021 30.15 850 25.1 17.5 63.6 56 8.8 47.8 18.02 0.709
14:05 1021 30.15 850 25.1 17.7 63.9 55 8.6 47.4 18.19 0.716
14:06 1021 30.15 850 25.1 17.7 63.8 55 8.5 47.4 18.19 0.716
14:07 1021 30.15 850 25.1 17.6 63.7 54 8.3 46.9 18.07 0.711
14:08 1021 30.15 850 25.1 17.4 63.2 52 7.4 45.4 17.83 0.702
14:09 1021 30.15 850 25.1 17.1 62.7 56 8.3 46.9 17.51 0.689
14:10 1021 30.15 850 25.1 16.8 62.3 48 5.9 42.6 17.27 0.68
14:11 1021 30.15 850 25.1 16.6 61.9 56 7.8 46 17.02 0.67
14:12 1021 30.15 850 25.1 16.5 61.7 53 6.9 44.4 16.96 0.668
14:13 1021 30.15 850 25.1 16.3 61.3 57 7.9 46.2 16.75 0.659
14:14 1021 30.15 850 25.1 16.1 61 57 7.6 45.6 16.58 0.653
14:15 1021 30.15 850 25.1 16 60.8 53 6.5 43.7 16.39 0.645
14:16 1021 30.15 850 25.1 15.8 60.4 57 7.3 45.2 16.26 0.64
14:17 1021 30.15 850 25.1 15.7 60.2 59 7.7 45.9 16.14 0.635
14:18 1021 30.15 850 25.1 15.5 60 57 7.1 44.8 15.99 0.63
14:19 1021 30.15 850 25.1 15.1 59.1 60 7.5 45.6 15.53 0.611
14:20 1021 30.15 850 25.1 14.4 57.8 60 6.7 44 14.82 0.583
14:21 1021 30.15 850 25.1 13.8 56.9 60 6.3 43.3 14.26 0.561
14:22 1021 30.15 850 25.1 13.4 56.2 59 5.5 41.9 13.85 0.545
14:23 1021 30.15 850 25.1 13.1 55.6 60 5.5 42 13.51 0.532
14:24 1021 30.15 850 25.1 12.9 55.1 60 5.4 41.7 13.31 0.524
14:25 1021 30.15 851 25.13 12.8 55 61 5.5 41.9 13.16 0.518
14:26 1021 30.15 850 25.1 12.7 54.9 64 6.2 43.2 13.14 0.517
14:27 1021 30.15 850 25.1 12.6 54.7 65 6.2 43.2 13.05 0.514
14:28 1021 30.15 850 25.1 12.5 54.4 69 7 44.6 12.9 0.508
14:29 1021 30.15 851 25.13 12.2 54 63 5.4 41.8 12.6 0.496
14:30 1021 30.15 851 25.13 11.8 53.3 65 5.4 41.7 12.2 0.48
14:31 1021 30.15 851 25.13 11.3 52.3 65 5.1 41.2 11.66 0.459
14:32 1021 30.15 851 25.13 10.8 51.5 66 4.8 40.7 11.24 0.443
14:33 1022 30.18 851 25.13 10.6 51.1 67 4.9 40.8 11 0.433
14:34 1022 30.18 851 25.13 10.5 51 66 4.5 40.1 10.87 0.428
14:35 1022 30.18 851 25.13 10.3 50.5 67 4.4 39.9 10.62 0.418
14:36 1022 30.18 851 25.13 9.8 49.7 69 4.4 39.9 10.27 0.404
14:37 1022 30.18 851 25.13 9.4 48.9 69 4 39.2 9.81 0.386
14:38 1022 30.18 851 25.13 9.1 48.3 73 4.5 40.1 9.55 0.376
14:39 1022 30.18 851 25.13 8.9 48 72 4.2 39.6 9.35 0.368
14:40 1022 30.18 851 25.13 8.9 47.9 73 4.3 39.8 9.32 0.367
14:41 1021 30.15 851 25.13 8.7 47.7 71 3.7 38.7 9.19 0.362
14:42 1021 30.15 851 25.13 8.8 47.8 72 3.9 39.1 9.18 0.361
14:43 1021 30.15 851 25.13 8.8 47.8 65 2.6 36.8 9.24 0.364
14:44 1021 30.15 850 25.1 9.3 48.7 61 2.3 36.1 9.63 0.379
14:45 1021 30.15 850 25.1 9.8 49.7 60 2.4 36.3 10.03 0.395
14:46 1021 30.15 850 25.1 10.1 50.2 63 3.5 38.3 10.34 0.407
14:47 1021 30.15 850 25.1 10.3 50.5 62 3.4 38.2 10.47 0.412
14:48 1021 30.15 850 25.1 10.4 50.6 65 4 39.2 10.51 0.414
14:49 1021 30.15 850 25.1 10.4 50.7 65 4.2 39.6 10.53 0.415
14:50 1021 30.15 850 25.1 10.4 50.7 62 3.4 38.1 10.55 0.415
14:51 1021 30.15 850 25.1 10.5 50.9 62 3.5 38.3 10.58 0.417
14:52 1021 30.15 850 25.1 10.6 51.1 60 3.3 37.9 10.67 0.42
14:53 1021 30.15 850 25.1 10.6 51.2 65 4.4 40 10.72 0.422
14:54 1021 30.15 850 25.1 10.5 50.9 70 5.4 41.7 10.69 0.421
14:55 1021 30.15 850 25.1 10.2 50.4 70 5 41.1 10.54 0.415
14:56 1021 30.15 851 25.13 10 50 71 4.9 40.9 10.38 0.409
14:57 1021 30.15 851 25.13 9.9 49.8 73 5.3 41.6 10.23 0.403
14:58 1021 30.15 851 25.13 9.8 49.6 78 6.1 43.1 10.2 0.402
14:59 1021 30.15 851 25.13 9.8 49.6 77 6 42.7 10.22 0.402
15:00 1021 30.15 851 25.13 9.8 49.7 80 6.5 43.7 10.29 0.405
15:01 1021 30.15 851 25.13 9.8 49.7 80 6.5 43.7 10.37 0.408
15:02 1021 30.15 851 25.13 9.7 49.5 78 6 42.8 10.27 0.404
15:03 1021 30.15 851 25.13 9.7 49.5 77 5.8 42.5 10.2 0.402
15:04 1021 30.15 851 25.13 9.7 49.5 76 5.8 42.4 10.16 0.4
15:05 1021 30.15 851 25.13 9.7 49.4 78 6.1 42.9 10.08 0.397
15:06 1021 30.15 851 25.13 9.6 49.2 78 5.9 42.6 10.06 0.396
15:07 1021 30.15 851 25.13 9.5 49 77 5.6 42.1 9.98 0.393
15:08 1021 30.15 851 25.13 9.4 48.9 78 5.8 42.5 9.92 0.391
15:09 1022 30.18 851 25.13 9.4 49 80 6.1 43 9.9 0.39
15:10 1022 30.18 851 25.13 9.4 49 78 5.8 42.4 9.9 0.39
15:11 1022 30.18 851 25.13 9.4 48.9 78 5.8 42.5 9.87 0.389
15:12 1022 30.18 851 25.13 9.4 49 79 5.9 42.6 9.89 0.389
15:13 1022 30.18 851 25.13 9.4 49 80 6.1 43.1 9.92 0.391
15:14 1022 30.18 851 25.13 9.4 49 82 6.5 43.8 9.94 0.391
15:15 1022 30.18 851 25.13 9.5 49 84 6.9 44.4 9.97 0.393
15:16 1022 30.18 851 25.13 9.5 49.1 85 7 44.7 10.02 0.394
15:17 1022 30.18 851 25.13 9.6 49.3 85 7.3 45.1 10.16 0.4
15:18 1022 30.18 851 25.13 9.8 49.6 85 7.3 45.2 10.31 0.406
15:19 1022 30.18 851 25.13 10 49.9 84 7.4 45.3 10.45 0.411
15:20 1022 30.18 851 25.13 10.1 50.2 84 7.5 45.6 10.56 0.416
15:21 1022 30.18 851 25.13 10.2 50.3 83 7.4 45.3 10.64 0.419
15:22 1022 30.18 851 25.13 10.3 50.6 82 7.4 45.3 10.75 0.423
15:23 1022 30.18 851 25.13 10.5 50.8 83 7.7 45.9 10.93 0.43
15:24 1022 30.18 851 25.13 10.6 51.1 84 8.1 46.5 11.09 0.437
15:25 1022 30.18 851 25.13 10.8 51.4 84 8.2 46.8 11.27 0.444
15:26 1022 30.18 851 25.13 10.9 51.7 81 7.7 45.9 11.35 0.447
15:27 1022 30.18 851 25.13 11 51.9 83 8.3 46.9 11.5 0.453
15:28 1022 30.18 851 25.13 11.2 52.1 81 8.1 46.6 11.67 0.459
15:29 1022 30.18 851 25.13 11.3 52.4 81 8.1 46.6 11.77 0.463
15:30 1022 30.18 851 25.13 11.4 52.6 80 8.2 46.7 11.89 0.468
15:31 1022 30.18 851 25.13 11.5 52.8 76 7.4 45.4 11.94 0.47
15:32 1022 30.18 851 25.13 11.6 52.9 75 7.3 45.2 12.01 0.473
15:33 1021 30.15 851 25.13 11.7 53 75 7.4 45.3 12.11 0.477
15:34 1021 30.15 851 25.13 11.7 53.1 76 7.6 45.8 12.16 0.479
15:35 1021 30.15 851 25.13 11.8 53.3 74 7.4 45.3 12.24 0.482
15:36 1021 30.15 851 25.13 11.9 53.5 74 7.5 45.6 12.35 0.486
15:37 1021 30.15 851 25.13 12 53.5 78 8.3 47 12.41 0.489
15:38 1021 30.15 851 25.13 12 53.6 80 8.7 47.7 12.54 0.494
15:39 1021 30.15 851 25.13 12.1 53.8 79 8.6 47.6 12.67 0.499
15:40 1021 30.15 851 25.13 12.3 54.1 81 9.1 48.3 12.76 0.502
15:41 1021 30.15 851 25.13 12.4 54.3 75 8.2 46.8 12.93 0.509
15:42 1021 30.15 851 25.13 12.5 54.6 77 8.7 47.6 13.01 0.512
15:43 1021 30.15 851 25.13 12.8 55 76 8.7 47.7 13.25 0.522
15:44 1021 30.15 851 25.13 13 55.3 72 8 46.5 13.47 0.53
15:45 1021 30.15 851 25.13 13.2 55.7 73 8.4 47.2 13.56 0.534
15:46 1021 30.15 851 25.13 13.3 55.9 73 8.5 47.4 13.72 0.54
15:47 1021 30.15 851 25.13 13.4 56.1 73 8.8 47.8 13.82 0.544
15:48 1021 30.15 851 25.13 13.6 56.4 73 8.9 47.9 13.97 0.55
15:49 1021 30.15 851 25.13 13.6 56.5 73 8.8 47.8 14.02 0.552
15:50 1021 30.15 851 25.13 13.8 56.8 77 9.9 49.7 14.24 0.561
15:51 1021 30.15 851 25.13 14 57.2 72 9 48.2 14.46 0.569
15:52 1021 30.15 851 25.13 14.2 57.5 69 8.6 47.4 14.59 0.574
15:53 1021 30.15 851 25.13 14.4 57.8 72 9.4 48.9 14.71 0.579
15:54 1021 30.15 851 25.13 14.6 58.2 75 10.2 50.4 14.97 0.589
15:55 1021 30.15 851 25.13 14.9 58.7 69 9.2 48.6 15.26 0.601
15:56 1021 30.15 851 25.13 15 59 65 8.6 47.5 15.4 0.606
15:57 1021 30.15 851 25.13 15.1 59.3 70 9.7 49.4 15.48 0.609
15:58 1021 30.15 851 25.13 15.2 59.4 68 9.4 48.9 15.61 0.615
15:59 1021 30.15 851 25.13 15.4 59.7 64 8.7 47.6 15.78 0.621
16:00 1021 30.15 851 25.13 15.5 59.8 67 9.5 49.1 15.85 0.624
16:01 1021 30.15 851 25.13 15.6 60 64 8.7 47.7 15.97 0.629
16:02 1021 30.15 850 25.1 15.6 60.1 57 7.1 44.8 15.99 0.63
16:03 1021 30.15 850 25.1 15.5 59.9 62 8.3 47 15.9 0.626
16:04 1021 30.15 850 25.1 15.6 60 64 8.8 47.8 16.04 0.631
16:05 1021 30.15 850 25.1 15.6 60.1 64 9 48.1 16.09 0.633
16:06 1021 30.15 850 25.1 15.8 60.4 66 9.5 49.1 16.16 0.636
16:07 1021 30.15 850 25.1 15.8 60.5 55 6.8 44.3 16.19 0.637
16:08 1021 30.15 850 25.1 15.8 60.4 60 8.2 46.7 16.21 0.638
16:09 1021 30.15 850 25.1 15.8 60.4 58 7.6 45.7 16.21 0.638
16:10 1021 30.15 850 25.1 15.8 60.5 60 8.3 46.9 16.26 0.64
16:11 1021 30.15 850 25.1 15.9 60.5 63 8.9 48 16.3 0.642
16:12 1021 30.15 850 25.1 15.9 60.6 59 7.9 46.2 16.39 0.645
16:13 1021 30.15 850 25.1 15.9 60.6 62 8.7 47.6 16.41 0.646
16:14 1021 30.15 850 25.1 16 60.7 64 9.2 48.5 16.45 0.648
16:15 1021 30.15 850 25.1 16 60.8 59 8 46.4 16.47 0.648
16:16 1021 30.15 850 25.1 16 60.8 57 7.5 45.6 16.46 0.648
16:17 1021 30.15 850 25.1 16 60.9 59 8.2 46.7 16.48 0.649
16:18 1021 30.15 850 25.1 16.1 60.9 62 8.8 47.8 16.48 0.649
16:19 1021 30.15 850 25.1 16 60.8 56 7.5 45.4 16.47 0.648
16:20 1021 30.15 850 25.1 15.9 60.6 60 8.2 46.7 16.31 0.642
16:21 1021 30.15 850 25.1 15.8 60.4 53 6.4 43.4 16.2 0.638
16:22 1021 30.15 850 25.1 15.6 60.2 59 7.6 45.7 16.08 0.633
16:23 1021 30.15 850 25.1 15.6 60 60 7.9 46.2 16.04 0.631
16:24 1021 30.15 850 25.1 15.6 60 63 8.6 47.5 16.08 0.633
16:25 1021 30.15 850 25.1 15.5 59.9 68 9.8 49.6 16.08 0.633
16:26 1021 30.15 850 25.1 15.5 60 64 8.7 47.7 16.1 0.634
16:27 1021 30.15 850 25.1 15.5 59.9 60 7.8 46.1 15.98 0.629
16:28 1021 30.15 850 25.1 15.4 59.7 60 7.8 46.1 15.98 0.629
16:29 1021 30.15 850 25.1 15.4 59.6 60 7.8 46 15.91 0.626
16:30 1021 30.15 850 25.1 15.3 59.5 65 8.7 47.7 15.85 0.624
16:31 1021 30.15 850 25.1 15.2 59.4 62 8.1 46.6 15.78 0.621
16:32 1021 30.15 850 25.1 15.1 59.2 62 7.9 46.2 15.68 0.617
16:33 1021 30.15 850 25.1 15.1 59.2 60 7.4 45.3 15.62 0.615
16:34 1021 30.15 850 25.1 15.1 59.1 58 6.9 44.4 15.54 0.612
16:35 1021 30.15 850 25.1 15 59.1 60 7.3 45.1 15.55 0.612
16:36 1021 30.15 850 25.1 15.1 59.1 63 8.2 46.8 15.59 0.614
16:37 1021 30.15 850 25.1 15.1 59.2 63 8.2 46.7 15.72 0.619
16:38 1021 30.15 850 25.1 15.2 59.3 61 7.8 46 15.75 0.62
16:39 1021 30.15 850 25.1 15.2 59.3 66 8.8 47.9 15.8 0.622
16:40 1021 30.15 850 25.1 15.3 59.5 59 7.5 45.4 15.8 0.622
16:41 1021 30.15 850 25.1 15.3 59.6 61 7.9 46.2 15.84 0.624
16:42 1021 30.15 850 25.1 15.3 59.6 59 7.3 45.2 15.9 0.626
16:43 1021 30.15 850 25.1 15.4 59.7 58 7.2 44.9 15.92 0.627
16:44 1021 30.15 850 25.1 15.5 59.8 60 7.8 46 16.04 0.631
16:45 1021 30.15 850 25.1 15.5 59.9 60 7.8 46 16.05 0.632
16:46 1021 30.15 850 25.1 15.5 59.8 59 7.5 45.5 16 0.63
16:47 1021 30.15 850 25.1 15.4 59.7 60 7.8 46.1 15.85 0.624
16:48 1021 30.15 850 25.1 15.3 59.6 60 7.6 45.7 15.86 0.624
16:49 1021 30.15 850 25.1 15.3 59.6 63 8.4 47.1 15.76 0.62
16:50 1021 30.15 850 25.1 15.3 59.5 61 8 46.4 15.76 0.62
16:51 1021 30.15 850 25.1 15.3 59.5 61 7.8 46.1 15.75 0.62
16:52 1021 30.15 850 25.1 15.3 59.5 61 8 46.4 15.76 0.62
16:53 1021 30.15 850 25.1 15.3 59.5 61 7.9 46.2 15.73 0.619
16:54 1021 30.15 850 25.1 15.4 59.6 56 6.7 44 15.78 0.621
16:55 1021 30.15 850 25.1 15.4 59.6 58 7.2 44.9 15.79 0.622
16:56 1021 30.15 850 25.1 15.4 59.7 61 7.9 46.2 15.83 0.623
16:57 1021 30.15 850 25.1 15.4 59.7 61 8 46.4 15.83 0.623
16:58 1021 30.15 850 25.1 15.5 59.8 63 8.5 47.3 15.92 0.627
16:59 1021 30.15 850 25.1 15.5 59.9 62 8.3 47 15.98 0.629
17:00 1021 30.15 850 25.1 15.5 59.9 58 7.3 45.2 15.94 0.628
17:01 1021 30.15 850 25.1 15.5 60 61 8 46.4 15.94 0.628
17:02 1021 30.15 850 25.1 15.6 60 62 8.5 47.2 15.98 0.629
17:03 1021 30.15 850 25.1 15.5 60 59 7.7 45.9 16.03 0.631
17:04 1021 30.15 850 25.1 15.6 60 58 7.4 45.4 15.95 0.628
17:05 1021 30.15 850 25.1 15.6 60 57 7.1 44.7 15.92 0.627
17:06 1021 30.15 850 25.1 15.5 59.9 60 7.9 46.2 15.93 0.627
17:07 1021 30.15 850 25.1 15.5 59.8 54 6.3 43.4 15.86 0.624
17:08 1021 30.15 850 25.1 15.5 59.8 57 7 44.5 15.89 0.626
17:09 1021 30.15 850 25.1 15.4 59.8 57 7 44.5 15.84 0.624
17:10 1021 30.15 850 25.1 15.4 59.7 57 6.9 44.4 15.83 0.623
17:11 1021 30.15 850 25.1 15.4 59.7 59 7.6 45.6 15.79 0.622
17:12 1021 30.15 850 25.1 15.3 59.6 56 6.6 43.8 15.79 0.622
17:13 1021 30.15 850 25.1 15.3 59.6 56 6.6 43.8 15.7 0.618
17:14 1021 30.15 850 25.1 15.3 59.5 60 7.7 45.8 15.7 0.618
17:15 1021 30.15 851 25.13 15.2 59.4 61 7.9 46.3 15.7 0.618
17:16 1021 30.15 851 25.13 15.2 59.3 57 6.9 44.4 15.58 0.613
17:17 1021 30.15 851 25.13 15.1 59.3 58 6.9 44.4 15.55 0.612
17:18 1021 30.15 851 25.13 15.1 59.2 58 7 44.6 15.52 0.611
17:19 1021 30.15 851 25.13 15.1 59.1 60 7.5 45.5 15.5 0.61
17:20 1022 30.18 851 25.13 15 59.1 62 8 46.3 15.43 0.607
17:21 1022 30.18 851 25.13 15 58.9 66 8.8 47.9 15.4 0.606
17:22 1022 30.18 851 25.13 14.9 58.7 66 8.7 47.6 15.4 0.606
17:23 1022 30.18 851 25.13 14.7 58.4 63 7.8 46 15.11 0.595
17:24 1022 30.18 851 25.13 14.2 57.6 66 8.1 46.6 14.65 0.577
17:25 1022 30.18 851 25.13 13.9 57.1 67 8.1 46.5 14.4 0.567
17:26 1022 30.18 851 25.13 13.7 56.7 66 7.5 45.5 14.16 0.557
17:27 1022 30.18 851 25.13 13.6 56.4 65 7.1 44.7 13.98 0.55
17:28 1022 30.18 851 25.13 13.4 56.2 66 7.2 44.9 13.79 0.543
17:29 1022 30.18 851 25.13 13.3 55.9 65 6.8 44.3 13.68 0.539
17:30 1022 30.18 851 25.13 13.1 55.6 65 6.7 44 13.54 0.533
17:31 1022 30.18 851 25.13 13 55.4 68 7.3 45.2 13.4 0.528
17:32 1022 30.18 851 25.13 12.8 55.1 70 7.5 45.5 13.27 0.522
17:33 1022 30.18 851 25.13 12.7 54.8 69 7.3 45.1 13.14 0.517
17:34 1022 30.18 851 25.13 12.5 54.6 71 7.5 45.5 12.95 0.51
17:35 1022 30.18 851 25.13 12.4 54.4 68 6.6 44 12.88 0.507
17:36 1022 30.18 851 25.13 12.4 54.3 68 6.7 44.1 12.8 0.504
17:37 1022 30.18 851 25.13 12.3 54.2 68 6.7 44 12.76 0.502
17:38 1022 30.18 851 25.13 12.3 54.2 68 6.7 44 12.75 0.502
17:39 1022 30.18 851 25.13 12.3 54.1 68 6.6 43.9 12.69 0.5
17:40 1022 30.18 851 25.13 12.3 54.1 69 6.9 44.4 12.67 0.499
17:41 1022 30.18 851 25.13 12.2 54 67 6.4 43.4 12.62 0.497
17:42 1022 30.18 851 25.13 12.1 53.9 66 6.1 43 12.54 0.494
17:43 1022 30.18 851 25.13 12.1 53.8 69 6.5 43.8 12.5 0.492
17:44 1022 30.18 851 25.13 12.1 53.8 71 6.9 44.5 12.47 0.491
17:45 1022 30.18 851 25.13 12 53.6 72 7.1 44.7 12.41 0.489
17:46 1022 30.18 851 25.13 11.9 53.4 71 6.9 44.5 12.36 0.487
17:47 1022 30.18 851 25.13 11.8 53.3 71 6.8 44.3 12.3 0.484
17:48 1022 30.18 851 25.13 11.9 53.3 69 6.4 43.5 12.25 0.482
17:49 1022 30.18 851 25.13 11.9 53.4 72 7 44.6 12.28 0.483
17:50 1022 30.18 851 25.13 11.9 53.3 72 6.9 44.5 12.33 0.485
17:51 1022 30.18 851 25.13 11.9 53.5 71 6.8 44.2 12.32 0.485
17:52 1022 30.18 851 25.13 12 53.6 69 6.5 43.8 12.35 0.486
17:53 1022 30.18 851 25.13 12.1 53.7 68 6.5 43.6 12.42 0.489
17:54 1022 30.18 851 25.13 12.1 53.7 70 6.8 44.3 12.49 0.492
17:55 1022 30.18 851 25.13 12.1 53.8 70 6.9 44.3 12.5 0.492
17:56 1022 30.18 851 25.13 12.1 53.7 71 7 44.5 12.48 0.491
17:57 1022 30.18 851 25.13 12.1 53.7 70 6.7 44.1 12.47 0.491
17:58 1022 30.18 851 25.13 12 53.7 72 7.2 45 12.45 0.49
17:59 1022 30.18 851 25.13 12 53.6 73 7.4 45.3 12.45 0.49
18:00 1022 30.18 851 25.13 11.9 53.5 73 7.4 45.3 12.38 0.487
18:01 1022 30.18 851 25.13 11.9 53.4 75 7.6 45.7 12.38 0.487
18:02 1022 30.18 851 25.13 11.8 53.3 74 7.4 45.4 12.38 0.487
18:03 1022 30.18 851 25.13 11.9 53.4 76 7.7 45.9 12.31 0.485
18:04 1022 30.18 851 25.13 11.9 53.4 75 7.6 45.7 12.36 0.487
18:05 1022 30.18 851 25.13 11.9 53.4 77 8 46.5 12.37 0.487
18:06 1022 30.18 851 25.13 12 53.5 77 8 46.4 12.41 0.489
18:07 1022 30.18 851 25.13 12 53.6 72 7.2 45 12.44 0.49
18:08 1022 30.18 851 25.13 12.1 53.8 73 7.4 45.4 12.49 0.492
18:09 1022 30.18 851 25.13 12.2 54 72 7.3 45.2 12.59 0.496
18:10 1022 30.18 851 25.13 12.3 54.1 71 7.3 45.1 12.7 0.5
18:11 1022 30.18 851 25.13 12.4 54.3 72 7.5 45.5 12.75 0.502
18:12 1022 30.18 851 25.13 12.4 54.3 73 7.7 45.9 12.81 0.504
18:13 1022 30.18 851 25.13 12.5 54.4 72 7.5 45.5 12.85 0.506
18:14 1022 30.18 851 25.13 12.5 54.5 72 7.6 45.7 12.87 0.507
18:15 1021 30.15 851 25.13 12.5 54.5 70 7.3 45.1 12.92 0.509
18:16 1022 30.18 851 25.13 12.6 54.6 70 7.3 45.1 12.97 0.511
18:17 1022 30.18 851 25.13 12.6 54.6 72 7.7 45.9 12.97 0.511
18:18 1022 30.18 851 25.13 12.6 54.7 73 7.9 46.2 13.06 0.514
18:19 1022 30.18 851 25.13 12.6 54.8 75 8.3 46.9 13.1 0.516
18:20 1022 30.18 851 25.13 12.7 54.8 76 8.6 47.4 13.14 0.517
18:21 1022 30.18 851 25.13 12.7 54.9 74 8.2 46.7 13.16 0.518
18:22 1022 30.18 851 25.13 12.8 55.1 72 8 46.4 13.25 0.522
18:23 1022 30.18 851 25.13 12.9 55.2 72 8.1 46.6 13.36 0.526
18:24 1022 30.18 851 25.13 13 55.4 73 8.2 46.8 13.44 0.529
18:25 1022 30.18 851 25.13 13.1 55.5 70 7.8 46.1 13.52 0.532
18:26 1022 30.18 851 25.13 13.1 55.6 71 8 46.4 13.56 0.534
18:27 1022 30.18 851 25.13 13.2 55.7 72 8.2 46.8 13.59 0.535
18:28 1022 30.18 851 25.13 13.2 55.7 72 8.2 46.7 13.6 0.535
18:29 1022 30.18 851 25.13 13.1 55.5 71 8.1 46.5 13.56 0.534
18:30 1022 30.18 851 25.13 13.1 55.6 72 8.1 46.7 13.52 0.532
18:31 1022 30.18 851 25.13 13.1 55.6 70 7.9 46.2 13.53 0.533
18:32 1022 30.18 851 25.13 13.1 55.6 70 7.9 46.2 13.54 0.533
18:33 1022 30.18 851 25.13 13.2 55.8 73 8.5 47.3 13.66 0.538
18:34 1022 30.18 851 25.13 13.3 56 69 7.7 45.9 13.76 0.542
18:35 1022 30.18 851 25.13 13.4 56.2 71 8.4 47.1 13.85 0.545
18:36 1022 30.18 851 25.13 13.5 56.4 69 8.1 46.6 13.98 0.55
18:37 1022 30.18 851 25.13 13.6 56.5 66 7.6 45.6 14.07 0.554
18:38 1022 30.18 851 25.13 13.7 56.7 71 8.6 47.4 14.13 0.556
18:39 1022 30.18 851 25.13 13.8 56.8 68 8.1 46.6 14.24 0.561
18:40 1022 30.18 851 25.13 13.9 57 68 8.2 46.7 14.33 0.564
18:41 1022 30.18 851 25.13 13.9 57 67 8 46.4 14.33 0.564
18:42 1022 30.18 851 25.13 14 57.1 67 8 46.4 14.41 0.567
18:43 1022 30.18 851 25.13 14.1 57.3 67 8.1 46.6 14.47 0.57
18:44 1022 30.18 851 25.13 14.1 57.4 70 8.7 47.6 14.55 0.573
18:45 1021 30.15 851 25.13 14.2 57.5 65 7.7 45.9 14.57 0.574
18:46 1021 30.15 851 25.13 14.2 57.5 67 8.2 46.8 14.54 0.572
18:47 1021 30.15 851 25.13 14.2 57.6 63 7.4 45.4 14.71 0.579
18:48 1021 30.15 851 25.13 14.3 57.7 65 7.9 46.3 14.67 0.578
18:49 1021 30.15 851 25.13 14.3 57.8 64 7.7 45.9 14.79 0.582
18:50 1021 30.15 851 25.13 14.4 57.9 63 7.4 45.3 14.89 0.586
18:51 1021 30.15 851 25.13 14.5 58 64 7.8 46 14.9 0.587
18:52 1021 30.15 851 25.13 14.5 58 64 7.8 46 14.87 0.585
18:53 1021 30.15 851 25.13 14.5 58 66 8.3 46.9 14.92 0.587
18:54 1021 30.15 851 25.13 14.5 58.1 64 7.9 46.2 14.96 0.589
18:55 1021 30.15 851 25.13 14.5 58.2 57 6.1 43 14.91 0.587
18:56 1021 30.15 851 25.13 14.5 58.1 60 6.9 44.4 14.91 0.587
18:57 1021 30.15 851 25.13 14.5 58.2 60 7 44.6 14.96 0.589
18:58 1022 30.18 851 25.13 14.6 58.3 60 7 44.7 15.05 0.593
18:59 1022 30.18 851 25.13 14.7 58.4 61 7.2 45 15.1 0.594
19:00 1022 30.18 851 25.13 14.8 58.6 59 6.8 44.3 15.2 0.598
19:01 1022 30.18 851 25.13 14.8 58.7 58 6.7 44.1 15.28 0.602
19:02 1022 30.18 851 25.13 14.9 58.8 61 7.5 45.5 15.36 0.605
19:03 1022 30.18 851 25.13 14.9 58.8 60 7.2 44.9 15.39 0.606
19:04 1022 30.18 851 25.13 14.9 58.8 58 6.8 44.2 15.39 0.606
19:05 1022 30.18 851 25.13 14.9 58.8 57 6.4 43.6 15.38 0.606
19:06 1022 30.18 851 25.13 14.8 58.7 59 6.9 44.4 15.31 0.603
19:07 1022 30.18 851 25.13 14.7 58.5 59 7 44.6 15.14 0.596
19:08 1022 30.18 851 25.13 14.6 58.4 61 7.3 45.1 15.09 0.594
19:09 1022 30.18 851 25.13 14.6 58.3 61 7.2 44.9 15.01 0.591
19:10 1022 30.18 851 25.13 14.5 58 62 7.3 45.2 14.9 0.587
19:11 1022 30.18 851 25.13 14.4 57.9 64 7.8 46 14.86 0.585
19:12 1022 30.18 851 25.13 14.3 57.7 62 7.1 44.9 14.77 0.581
19:13 1022 30.18 851 25.13 14.2 57.6 64 7.7 45.8 14.67 0.578
19:14 1022 30.18 851 25.13 14.1 57.4 61 6.8 44.3 14.6 0.575
19:15 1022 30.18 851 25.13 14 57.3 60 6.6 43.8 14.45 0.569
19:16 1022 30.18 851 25.13 14 57.1 62 6.9 44.4 14.37 0.566
19:17 1022 30.18 851 25.13 13.8 56.9 62 6.7 44 14.26 0.561
19:18 1022 30.18 851 25.13 13.7 56.7 65 7.2 45 14.15 0.557
19:19 1022 30.18 851 25.13 13.6 56.5 65 7.2 44.9 14.11 0.556
19:20 1022 30.18 851 25.13 13.5 56.4 66 7.3 45.1 13.98 0.55
19:21 1022 30.18 851 25.13 13.4 56.2 64 6.9 44.4 13.89 0.547
19:22 1022 30.18 851 25.13 13.4 56.1 66 7.2 45 13.8 0.543
19:23 1022 30.18 851 25.13 13.3 56 66 7.1 44.8 13.75 0.541
19:24 1022 30.18 851 25.13 13.3 55.9 66 7.1 44.7 13.67 0.538
19:25 1022 30.18 851 25.13 13.2 55.8 67 7.2 44.9 13.63 0.537
19:26 1022 30.18 851 25.13 13.1 55.6 67 7.3 45.1 13.56 0.534
19:27 1022 30.18 851 25.13 13 55.4 68 7.4 45.3 13.46 0.53
19:28 1022 30.18 851 25.13 13 55.4 68 7.3 45.2 13.41 0.528
19:29 1022 30.18 851 25.13 12.9 55.3 68 7.3 45.1 13.4 0.528
19:30 1022 30.18 851 25.13 13 55.3 70 7.6 45.7 13.38 0.527
19:31 1022 30.18 851 25.13 13 55.3 71 7.8 46 13.4 0.528
19:32 1022 30.18 851 25.13 13 55.3 71 7.8 46 13.41 0.528
19:33 1022 30.18 851 25.13 12.9 55.2 71 7.8 46.1 13.39 0.527
19:34 1022 30.18 851 25.13 12.8 55.1 71 7.7 45.9 13.31 0.524
19:35 1022 30.18 851 25.13 12.8 55 71 7.8 46 13.23 0.521
19:36 1022 30.18 851 25.13 12.7 54.9 71 7.7 45.8 13.17 0.519
19:37 1022 30.18 851 25.13 12.7 54.8 72 7.8 46 13.11 0.516
19:38 1022 30.18 851 25.13 12.6 54.7 72 7.7 45.9 13.04 0.513
19:39 1022 30.18 851 25.13 12.5 54.5 71 7.3 45.2 12.93 0.509
19:40 1022 30.18 851 25.13 12.5 54.4 71 7.4 45.3 12.86 0.506
19:41 1022 30.18 851 25.13 12.4 54.4 71 7.3 45.2 12.86 0.506
19:42 1022 30.18 851 25.13 12.4 54.3 70 7.2 45 12.8 0.504
19:43 1022 30.18 851 25.13 12.4 54.3 71 7.4 45.3 12.75 0.502
19:44 1022 30.18 851 25.13 12.4 54.3 71 7.4 45.2 12.75 0.502
19:45 1022 30.18 851 25.13 12.4 54.2 71 7.2 45 12.73 0.501
19:46 1022 30.18 851 25.13 12.3 54.2 72 7.4 45.3 12.7 0.5
19:47 1022 30.18 851 25.13 12.3 54.1 73 7.6 45.7 12.68 0.499
19:48 1022 30.18 851 25.13 12.2 53.9 74 7.6 45.7 12.59 0.496
19:49 1022 30.18 851 25.13 12.1 53.7 75 7.8 46.1 12.51 0.493
19:50 1022 30.18 851 25.13 11.9 53.5 76 7.8 46 12.39 0.488
19:51 1022 30.18 851 25.13 11.8 53.3 76 7.7 45.9 12.28 0.483
19:52 1022 30.18 851 25.13 11.8 53.2 76 7.7 45.8 12.21 0.481
19:53 1022 30.18 851 25.13 11.8 53.2 76 7.6 45.8 12.18 0.48
19:54 1022 30.18 851 25.13 11.8 53.2 75 7.5 45.5 12.19 0.48
19:55 1022 30.18 851 25.13 11.8 53.3 74 7.4 45.3 12.22 0.481
19:56 1022 30.18 851 25.13 11.8 53.3 74 7.3 45.2 12.21 0.481
19:57 1022 30.18 851 25.13 11.9 53.4 73 7.3 45.2 12.26 0.483
19:58 1022 30.18 851 25.13 11.9 53.5 73 7.4 45.2 12.29 0.484
19:59 1022 30.18 851 25.13 11.9 53.5 74 7.4 45.3 12.32 0.485
20:00 1022 30.18 851 25.13 11.9 53.4 75 7.5 45.5 12.25 0.482
20:01 1022 30.18 851 25.13 11.8 53.3 75 7.6 45.8 12.2 0.48
20:02 1022 30.18 851 25.13 11.7 53 76 7.7 45.8 12.11 0.477
20:03 1022 30.18 851 25.13 11.6 52.9 76 7.6 45.7 12.07 0.475
20:04 1022 30.18 851 25.13 11.5 52.7 76 7.5 45.5 11.94 0.47
20:05 1022 30.18 851 25.13 11.4 52.5 76 7.3 45.2 11.83 0.466
20:06 1022 30.18 851 25.13 11.4 52.5 77 7.4 45.4 11.77 0.463
20:07 1022 30.18 851 25.13 11.3 52.3 76 7.3 45.1 11.69 0.46
20:08 1022 30.18 851 25.13 11.3 52.3 76 7.1 44.8 11.62 0.457
20:09 1022 30.18 851 25.13 11.2 52.2 77 7.4 45.4 11.58 0.456
20:10 1022 30.18 851 25.13 11.1 52.1 76 7.1 44.7 11.49 0.452
20:11 1022 30.18 851 25.13 11.2 52.1 75 7 44.5 11.47 0.452
20:12 1022 30.18 851 25.13 11.3 52.3 75 7.1 44.8 11.5 0.453
20:13 1022 30.18 851 25.13 11.3 52.3 75 7.1 44.7 11.55 0.455
20:14 1022 30.18 851 25.13 11.3 52.3 75 7 44.5 11.53 0.454
20:15 1022 30.18 851 25.13 11.3 52.4 74 6.8 44.3 11.55 0.455
20:16 1022 30.18 851 25.13 11.5 52.7 73 6.9 44.4 11.67 0.459
20:17 1022 30.18 851 25.13 11.5 52.6 74 7 44.6 11.71 0.461
20:18 1022 30.18 851 25.13 11.4 52.6 75 7.1 44.8 11.68 0.46
20:19 1022 30.18 851 25.13 11.4 52.5 76 7.4 45.2 11.69 0.46
20:20 1022 30.18 851 25.13 11.5 52.6 76 7.4 45.3 11.75 0.463
20:21 1022 30.18 851 25.13 11.5 52.7 76 7.4 45.4 11.85 0.467
20:22 1022 30.18 851 25.13 11.5 52.7 77 7.6 45.7 11.83 0.466
20:23 1022 30.18 851 25.13 11.4 52.6 78 7.8 46 11.75 0.463
20:24 1022 30.18 851 25.13 11.4 52.4 78 7.7 45.8 11.71 0.461
20:25 1022 30.18 851 25.13 11.3 52.3 79 7.7 45.9 11.67 0.459
20:26 1022 30.18 851 25.13 11.3 52.3 79 7.9 46.2 11.65 0.459
20:27 1022 30.18 851 25.13 11.2 52.1 80 7.9 46.2 11.62 0.457
20:28 1022 30.18 851 25.13 11.1 51.9 80 7.8 46.1 11.57 0.456
20:29 1022 30.18 851 25.13 11 51.8 79 7.5 45.5 11.5 0.453
20:30 1022 30.18 851 25.13 11.1 51.9 79 7.5 45.5 11.43 0.45
20:31 1022 30.18 851 25.13 11.1 52 78 7.4 45.3 11.44 0.45
20:32 1022 30.18 851 25.13 11.1 52 78 7.5 45.4 11.43 0.45
20:33 1022 30.18 851 25.13 11.2 52.2 77 7.4 45.4 11.43 0.45
20:34 1022 30.18 851 25.13 11.2 52.2 77 7.4 45.3 11.48 0.452
20:35 1022 30.18 851 25.13 11.3 52.4 77 7.4 45.3 11.53 0.454
20:36 1022 30.18 851 25.13 11.3 52.4 77 7.4 45.4 11.53 0.454
20:37 1022 30.18 851 25.13 11.3 52.3 77 7.4 45.3 11.53 0.454
20:38 1022 30.18 851 25.13 11.2 52.2 77 7.4 45.4 11.5 0.453
20:39 1022 30.18 851 25.13 11.2 52.1 77 7.3 45.1 11.43 0.45
20:40 1022 30.18 851 25.13 11.1 52 79 7.6 45.6 11.45 0.451
20:41 1022 30.18 851 25.13 11.1 51.9 80 7.7 45.9 11.41 0.449
20:42 1022 30.18 851 25.13 10.9 51.7 81 7.8 46 11.31 0.445
20:43 1022 30.18 851 25.13 10.9 51.5 81 7.7 45.9 11.23 0.442
20:44 1022 30.18 851 25.13 10.7 51.3 80 7.5 45.5 11.1 0.437
20:45 1022 30.18 851 25.13 10.7 51.2 80 7.4 45.4 11.06 0.435
20:46 1022 30.18 851 25.13 10.7 51.2 80 7.4 45.4 11.03 0.434
20:47 1022 30.18 851 25.13 10.7 51.2 80 7.4 45.3 11.04 0.435
20:48 1022 30.18 851 25.13 10.6 51.1 79 7.2 45 10.98 0.432
20:49 1022 30.18 851 25.13 10.7 51.2 79 7.2 45 10.99 0.433
20:50 1022 30.18 851 25.13 10.7 51.3 78 7.1 44.8 11.06 0.435
20:51 1022 30.18 851 25.13 10.8 51.4 78 7.2 45 11.12 0.438
20:52 1022 30.18 851 25.13 10.9 51.5 78 7.2 45 11.16 0.439
20:53 1022 30.18 851 25.13 10.9 51.6 78 7.1 44.9 11.2 0.441
20:54 1022 30.18 851 25.13 10.9 51.7 77 7.1 44.8 11.21 0.441
20:55 1022 30.18 851 25.13 10.9 51.6 76 7 44.5 11.21 0.441
20:56 1022 30.18 851 25.13 10.9 51.6 77 7.1 44.8 11.21 0.441
20:57 1022 30.18 851 25.13 10.9 51.6 77 7.1 44.7 11.24 0.443
20:58 1022 30.18 851 25.13 10.9 51.6 77 7 44.7 11.2 0.441
20:59 1022 30.18 851 25.13 10.9 51.6 77 7.1 44.8 11.24 0.443
21:00 1022 30.18 851 25.13 11 51.7 78 7.3 45.1 11.27 0.444
21:01 1022 30.18 851 25.13 10.9 51.7 78 7.3 45.1 11.27 0.444
21:02 1022 30.18 851 25.13 11 51.8 78 7.3 45.1 11.32 0.446
21:03 1022 30.18 851 25.13 11 51.8 78 7.3 45.1 11.33 0.446
21:04 1022 30.18 851 25.13 11.1 51.9 79 7.6 45.6 11.34 0.446
21:05 1022 30.18 851 25.13 11 51.7 78 7.3 45.1 11.31 0.445
21:06 1022 30.18 851 25.13 10.9 51.6 78 7.2 45 11.24 0.443
21:07 1022 30.18 851 25.13 10.9 51.6 78 7.2 45 11.21 0.441
21:08 1022 30.18 851 25.13 10.9 51.6 78 7.3 45.1 11.19 0.441
21:09 1022 30.18 851 25.13 10.9 51.6 79 7.3 45.2 11.12 0.438
21:10 1022 30.18 851 25.13 10.8 51.4 79 7.4 45.3 11.12 0.438
21:11 1022 30.18 851 25.13 10.7 51.3 80 7.3 45.2 11.06 0.435
21:12 1022 30.18 851 25.13 10.6 51.1 80 7.3 45.1 10.99 0.433
21:13 1022 30.18 851 25.13 10.6 51 79 7.1 44.9 10.89 0.429
21:14 1022 30.18 851 25.13 10.5 51 79 7.1 44.8 10.83 0.426
21:15 1022 30.18 851 25.13 10.5 50.8 79 7.1 44.7 10.77 0.424
21:16 1022 30.18 851 25.13 10.3 50.6 80 7 44.6 10.65 0.419
21:17 1022 30.18 851 25.13 10.2 50.4 80 7 44.5 10.63 0.419
21:18 1022 30.18 852 25.16 10.2 50.4 80 7 44.5 10.56 0.416
21:19 1022 30.18 852 25.16 10.3 50.6 78 6.6 43.9 10.62 0.418
21:20 1022 30.18 852 25.16 10.6 51 75 6.4 43.5 10.84 0.427
21:21 1022 30.18 851 25.13 10.9 51.6 74 6.4 43.6 11.09 0.437
21:22 1022 30.18 851 25.13 11 51.8 73 6.4 43.6 11.24 0.443
21:23 1022 30.18 852 25.16 11 51.8 74 6.7 44 11.23 0.442
21:24 1022 30.18 852 25.16 10.8 51.4 75 6.7 44 11.12 0.438
21:25 1022 30.18 852 25.16 10.6 51.1 76 6.7 44 11 0.433
21:26 1022 30.18 852 25.16 10.3 50.5 78 6.7 44 10.73 0.422
21:27 1022 30.18 852 25.16 10 50.1 80 6.7 44.1 10.5 0.413
21:28 1022 30.18 852 25.16 9.9 49.8 81 6.7 44.1 10.32 0.406
21:29 1022 30.18 852 25.16 9.9 49.9 80 6.6 43.9 10.34 0.407
21:30 1022 30.18 852 25.16 10 50.1 79 6.6 43.9 10.35 0.407
21:31 1022 30.18 852 25.16 10 50 79 6.5 43.7 10.33 0.407
21:32 1022 30.18 852 25.16 9.9 49.8 80 6.6 43.8 10.25 0.404
21:33 1022 30.18 852 25.16 9.8 49.6 80 6.6 43.9 10.18 0.401
21:34 1022 30.18 852 25.16 9.9 49.7 80 6.6 43.8 10.24 0.403
21:35 1022 30.18 852 25.16 10 50 79 6.6 43.8 10.29 0.405
21:36 1022 30.18 852 25.16 10 50 79 6.6 43.8 10.32 0.406
21:37 1022 30.18 852 25.16 9.9 49.9 79 6.5 43.7 10.27 0.404
21:38 1022 30.18 852 25.16 9.8 49.6 80 6.4 43.6 10.11 0.398
21:39 1022 30.18 852 25.16 9.9 49.7 79 6.4 43.5 10.15 0.4
21:40 1022 30.18 852 25.16 9.9 49.9 78 6.4 43.4 10.17 0.4
21:41 1022 30.18 852 25.16 10.1 50.1 78 6.4 43.5 10.24 0.403
21:42 1022 30.18 852 25.16 10.2 50.4 76 6.2 43.2 10.38 0.409
21:43 1022 30.18 852 25.16 10.5 50.9 74 6.2 43.1 10.6 0.417
21:44 1022 30.18 852 25.16 10.7 51.3 74 6.2 43.2 10.85 0.427
21:45 1022 30.18 852 25.16 10.8 51.4 73 6.2 43.2 10.9 0.429
21:46 1022 30.18 852 25.16 10.8 51.4 73 6.2 43.2 10.93 0.43
21:47 1022 30.18 852 25.16 10.6 51 76 6.4 43.6 10.8 0.425
21:48 1022 30.18 852 25.16 10.4 50.8 74 6 42.8 10.71 0.422
21:49 1022 30.18 852 25.16 10.6 51.1 74 6.2 43.1 10.79 0.425
21:50 1022 30.18 852 25.16 10.6 51.1 75 6.3 43.4 10.73 0.422
21:51 1022 30.18 852 25.16 10.3 50.6 76 6.4 43.5 10.49 0.413
21:52 1022 30.18 852 25.16 9.9 49.9 78 6.2 43.2 10.19 0.401
21:53 1022 30.18 852 25.16 9.6 49.3 79 6.2 43.2 9.96 0.392
21:54 1022 30.18 852 25.16 9.3 48.7 81 6.1 43.1 9.69 0.381
21:55 1022 30.18 852 25.16 9.1 48.4 82 6.2 43.1 9.54 0.376
21:56 1022 30.18 852 25.16 9 48.2 83 6.2 43.2 9.47 0.373
21:57 1022 30.18 852 25.16 9 48.2 83 6.3 43.3 9.44 0.372
21:58 1022 30.18 852 25.16 9.2 48.6 82 6.3 43.3 9.54 0.376
21:59 1022 30.18 852 25.16 9.4 49 81 6.3 43.3 9.67 0.381
22:00 1022 30.18 852 25.16 9.7 49.4 79 6.3 43.4 9.84 0.387
22:01 1022 30.18 852 25.16 9.8 49.7 79 6.3 43.4 10.02 0.394
22:02 1022 30.18 852 25.16 9.9 49.9 78 6.3 43.4 10.13 0.399
22:03 1022 30.18 852 25.16 10 50 78 6.4 43.6 10.21 0.402
22:04 1022 30.18 852 25.16 10 50.1 79 6.5 43.8 10.23 0.403
22:05 1023 30.21 852 25.16 10 50 79 6.5 43.7 10.25 0.404
22:06 1023 30.21 852 25.16 10.1 50.1 79 6.5 43.8 10.28 0.405
22:07 1023 30.21 852 25.16 10 50.1 79 6.7 44 10.28 0.405
22:08 1023 30.21 852 25.16 9.9 49.8 80 6.6 43.9 10.23 0.403
22:09 1023 30.21 852 25.16 9.8 49.7 81 6.7 44.1 10.2 0.402
22:10 1023 30.21 852 25.16 9.7 49.5 81 6.7 44.1 10.13 0.399
22:11 1023 30.21 852 25.16 9.7 49.5 81 6.7 44 10.13 0.399
22:12 1023 30.21 852 25.16 9.8 49.6 81 6.7 44.1 10.14 0.399
22:13 1023 30.21 852 25.16 9.7 49.5 81 6.7 44.1 10.12 0.398
22:14 1023 30.21 852 25.16 9.7 49.5 82 6.7 44.1 10.09 0.397
22:15 1023 30.21 852 25.16 9.7 49.5 82 6.8 44.2 10.1 0.398
22:16 1023 30.21 852 25.16 9.8 49.6 82 6.8 44.2 10.12 0.398
22:17 1023 30.21 852 25.16 9.8 49.7 81 6.8 44.2 10.17 0.4
22:18 1023 30.21 852 25.16 9.9 49.7 81 6.8 44.3 10.17 0.4
22:19 1023 30.21 852 25.16 9.8 49.6 81 6.8 44.2 10.17 0.4
22:20 1023 30.21 852 25.16 9.8 49.6 81 6.7 44.1 10.12 0.398
22:21 1023 30.21 852 25.16 9.8 49.6 81 6.7 44.1 10.1 0.398
22:22 1023 30.21 852 25.16 9.7 49.4 81 6.6 44 10.06 0.396
22:23 1023 30.21 852 25.16 9.7 49.4 81 6.6 43.9 9.99 0.393
22:24 1023 30.21 852 25.16 9.6 49.3 81 6.6 43.9 9.95 0.392
22:25 1023 30.21 852 25.16 9.6 49.2 82 6.6 43.8 9.91 0.39
22:26 1023 30.21 852 25.16 9.5 49.1 82 6.6 43.8 9.88 0.389
22:27 1023 30.21 852 25.16 9.5 49.1 82 6.6 44 9.86 0.388
22:28 1023 30.21 852 25.16 9.4 48.9 83 6.7 44.1 9.8 0.386
22:29 1023 30.21 852 25.16 9.4 48.9 83 6.7 44 9.75 0.384
22:30 1023 30.21 852 25.16 9.3 48.7 82 6.4 43.6 9.71 0.382
22:31 1023 30.21 852 25.16 9.4 49 81 6.3 43.4 9.76 0.384
22:32 1023 30.21 852 25.16 9.7 49.4 80 6.4 43.5 9.95 0.392
22:33 1023 30.21 852 25.16 9.9 49.7 79 6.4 43.6 10.07 0.396
22:34 1023 30.21 852 25.16 9.9 49.9 79 6.6 43.8 10.18 0.401
22:35 1023 30.21 852 25.16 10 49.9 80 6.7 44.1 10.28 0.405
22:36 1023 30.21 852 25.16 9.9 49.8 81 6.9 44.3 10.21 0.402
22:37 1023 30.21 852 25.16 9.8 49.6 82 6.9 44.4 10.11 0.398
22:38 1023 30.21 852 25.16 9.6 49.3 83 6.9 44.3 10.05 0.396
22:39 1023 30.21 852 25.16 9.5 49.1 83 6.8 44.3 9.97 0.393
22:40 1023 30.21 852 25.16 9.5 49.1 84 6.9 44.4 9.89 0.389
22:41 1023 30.21 852 25.16 9.4 49 84 6.8 44.3 9.86 0.388
22:42 1023 30.21 852 25.16 9.4 48.9 84 6.8 44.3 9.82 0.387
22:43 1023 30.21 852 25.16 9.4 48.8 85 6.9 44.4 9.77 0.385
22:44 1023 30.21 852 25.16 9.3 48.8 85 6.9 44.4 9.71 0.382
22:45 1023 30.21 852 25.16 9.2 48.6 85 6.8 44.3 9.68 0.381
22:46 1023 30.21 852 25.16 9.3 48.7 85 6.8 44.3 9.64 0.38
22:47 1023 30.21 852 25.16 9.3 48.7 85 6.8 44.3 9.68 0.381
22:48 1023 30.21 852 25.16 9.3 48.8 84 6.8 44.3 9.71 0.382
22:49 1023 30.21 852 25.16 9.3 48.8 84 6.8 44.3 9.73 0.383
22:50 1023 30.21 852 25.16 9.3 48.8 84 6.8 44.2 9.72 0.383
22:51 1023 30.21 852 25.16 9.3 48.8 84 6.7 44.1 9.71 0.382
22:52 1023 30.21 852 25.16 9.3 48.8 83 6.7 44 9.65 0.38
22:53 1023 30.21 852 25.16 9.3 48.7 83 6.6 44 9.63 0.379
22:54 1023 30.21 852 25.16 9.2 48.6 84 6.7 44 9.63 0.379
22:55 1023 30.21 852 25.16 9.2 48.5 85 6.7 44.1 9.56 0.376
22:56 1023 30.21 852 25.16 9.1 48.4 85 6.7 44.1 9.54 0.376
22:57 1023 30.21 852 25.16 9.1 48.3 85 6.7 44.1 9.47 0.373
22:58 1023 30.21 852 25.16 9 48.2 85 6.7 44 9.42 0.371
22:59 1023 30.21 852 25.16 9 48.2 85 6.7 44 9.37 0.369
23:00 1023 30.21 852 25.16 8.9 48.1 86 6.7 44 9.36 0.369
23:01 1023 30.21 852 25.16 8.9 48.1 85 6.6 43.8 9.34 0.368
23:02 1023 30.21 852 25.16 9 48.2 84 6.5 43.7 9.39 0.37
23:03 1023 30.21 852 25.16 9.1 48.3 84 6.5 43.8 9.41 0.37
23:04 1023 30.21 852 25.16 9.1 48.5 84 6.6 43.9 9.52 0.375
23:05 1022 30.18 852 25.16 9.1 48.4 84 6.6 43.9 9.5 0.374
23:06 1022 30.18 852 25.16 9.1 48.5 84 6.6 43.9 9.5 0.374
23:07 1022 30.18 852 25.16 9.2 48.5 84 6.6 43.9 9.52 0.375
23:08 1022 30.18 852 25.16 9.2 48.6 84 6.6 43.9 9.59 0.378
23:09 1022 30.18 852 25.16 9.3 48.7 84 6.7 44.1 9.66 0.38
23:10 1022 30.18 852 25.16 9.3 48.7 84 6.7 44.1 9.69 0.381
23:11 1022 30.18 852 25.16 9.3 48.7 84 6.8 44.3 9.67 0.381
23:12 1022 30.18 852 25.16 9.3 48.7 85 6.8 44.3 9.62 0.379
23:13 1022 30.18 852 25.16 9.3 48.7 85 6.8 44.3 9.64 0.38
23:14 1022 30.18 852 25.16 9.2 48.6 85 6.9 44.3 9.6 0.378
23:15 1022 30.18 852 25.16 9.2 48.5 85 6.8 44.3 9.56 0.376
23:16 1022 30.18 852 25.16 9.2 48.5 86 6.9 44.4 9.58 0.377
23:17 1022 30.18 852 25.16 9.2 48.5 86 6.9 44.4 9.53 0.375
23:18 1022 30.18 852 25.16 9.1 48.5 85 6.8 44.3 9.55 0.376
23:19 1022 30.18 852 25.16 9.2 48.5 85 6.8 44.3 9.54 0.376
23:20 1022 30.18 852 25.16 9.3 48.7 84 6.8 44.2 9.64 0.38
23:21 1022 30.18 852 25.16 9.4 48.8 84 6.7 44.1 9.73 0.383
23:22 1022 30.18 852 25.16 9.5 49 83 6.7 44 9.78 0.385
23:23 1022 30.18 852 25.16 9.5 49.2 82 6.7 44 9.86 0.388
23:24 1022 30.18 852 25.16 9.6 49.3 82 6.7 44 9.96 0.392
23:25 1022 30.18 852 25.16 9.7 49.4 82 6.7 44.1 9.99 0.393
23:26 1022 30.18 852 25.16 9.7 49.5 82 6.8 44.2 10 0.394
23:27 1022 30.18 852 25.16 9.7 49.5 82 6.7 44.1 10.05 0.396
23:28 1022 30.18 852 25.16 9.7 49.5 82 6.7 44.1 10.05 0.396
23:29 1022 30.18 852 25.16 9.7 49.4 82 6.7 44.1 10.04 0.395
23:30 1022 30.18 852 25.16 9.7 49.4 82 6.7 44.1 10.01 0.394
23:31 1022 30.18 852 25.16 9.7 49.4 82 6.7 44.1 10.04 0.395
23:32 1022 30.18 852 25.16 9.7 49.5 82 6.7 44.1 10.05 0.396
23:33 1022 30.18 852 25.16 9.7 49.5 81 6.6 44 10.02 0.394
23:34 1022 30.18 852 25.16 9.7 49.5 81 6.6 43.8 10.06 0.396
23:35 1022 30.18 852 25.16 9.8 49.6 80 6.5 43.7 10.12 0.398
23:36 1022 30.18 852 25.16 9.9 49.8 80 6.6 43.9 10.19 0.401
23:37 1022 30.18 852 25.16 9.8 49.7 82 7 44.5 10.23 0.403
23:38 1023 30.21 852 25.16 9.7 49.5 83 7 44.7 10.17 0.4
23:39 1022 30.18 852 25.16 9.6 49.3 84 7 44.5 10.05 0.396
23:40 1023 30.21 852 25.16 9.5 49.1 84 6.9 44.4 9.95 0.392
23:41 1023 30.21 852 25.16 9.5 49 84 7 44.6 9.92 0.391
23:42 1023 30.21 852 25.16 9.4 48.9 86 7.1 44.8 9.82 0.387
23:43 1023 30.21 852 25.16 9.3 48.7 86 7.1 44.8 9.64 0.38
23:44 1023 30.21 852 25.16 9.2 48.5 86 6.9 44.4 9.59 0.378
23:45 1023 30.21 852 25.16 9.2 48.5 85 6.9 44.4 9.62 0.379
23:46 1023 30.21 852 25.16 9.2 48.6 85 6.8 44.2 9.64 0.38
23:47 1023 30.21 852 25.16 9.3 48.7 84 6.8 44.2 9.73 0.383
23:48 1023 30.21 852 25.16 9.4 48.8 84 6.7 44.1 9.77 0.385
23:49 1023 30.21 852 25.16 9.4 48.9 83 6.7 44 9.81 0.386
23:50 1023 30.21 852 25.16 9.5 49 82 6.6 43.9 9.84 0.387
23:51 1023 30.21 852 25.16 9.5 49.1 82 6.6 43.8 9.85 0.388
23:52 1023 30.21 852 25.16 9.6 49.2 81 6.5 43.7 9.91 0.39
23:53 1023 30.21 852 25.16 9.6 49.4 82 6.7 44 9.95 0.392
23:54 1023 30.21 852 25.16 9.7 49.4 81 6.6 43.8 9.94 0.391
23:55 1023 30.21 852 25.16 9.7 49.5 81 6.6 43.8 9.98 0.393
23:56 1023 30.21 852 25.16 9.8 49.6 80 6.5 43.7 9.99 0.393
23:57 1023 30.21 852 25.16 9.8 49.7 80 6.5 43.8 10.05 0.396
23:58 1023 30.21 852 25.16 9.8 49.7 80 6.5 43.7 10.04 0.395
23:59 1023 30.21 852 25.16 9.8 49.6 80 6.5 43.8 9.95 0.392
24:00 1023 30.21 852 25.16 9.6 49.4 80 6.5 43.6 9.9 0.39